Darstellungsparameter: Aktuell verwendete Einstellungen:
Skalierung der Graphiken ... ?
xyx+y,   Skalierungsfaktor:      Skalierung: Modus: x, Faktor: 1
Darstellungszeitraum ... ?
Vom - - bis: - -   Zeitraum: 25.05.2010 - 07.06.2010
Min/Max/Avg-Anzeige ... ?
Zeige MMA aktuell
Zeige MMA Monat
Zeige MMA alles
Zeige --A aktuell
Zeige --A Monat
Zeige --A alles
Keine MMA-Anzeige
MMA:
Minimum Maximum Average (ber die Originaldaten)
MMA-Basis: 25.05.2010 - 07.06.2010
Quicknavigation für Darstellung... ?
Tage:      1T, 2T, 3T, 5T -1T -2T -3T -5T +1T +2T +3T +5T
Wochen: 1W, 2W, 3W -1W -2W -3W +1W +2W +3W
Monate: 1M, 3M, 6M -1M -3M -6M +1M +3M +6M
Jahre:    1J, 3J, 5J, 10J -1J -3J -5J -10J +1J +3J +5J +10J
Nutze für die Darstellung ... ?
Originaldaten oder Mittelwerte auf ...
Stundenbasis Tagesbasis Wochenbasis
Monatsbasis Jahresbasis      Datenbasis: Original-Daten
Darstellen als:
Statistik (Auto) Statistik J:M      Darstellung:
Zur Graphik,    zurück zur Übersicht aller Sensoren.
 
Tabellarische Datenbersicht: ?
 
Sensor: Nr:Datum:Temp:Abs-Feuchte:Windchill:Wind:
Aussen-T/F 1 25-05-2010 00:04:03 19.1 C 8.36 g/m*3 19.1 C 0 km/h
2 25-05-2010 00:16:04 18.7 C 8.49 g/m*3 18.7 C 0 km/h
3 25-05-2010 00:28:04 18.5 C 8.54 g/m*3 18.5 C 0 km/h
4 25-05-2010 00:40:04 18.2 C 8.55 g/m*3 18.2 C 0 km/h
5 25-05-2010 00:52:04 18 C 8.75 g/m*3 18 C 0 km/h
6 25-05-2010 01:04:04 17.8 C 8.8 g/m*3 17.8 C 0 km/h
7 25-05-2010 01:16:04 17.5 C 8.8 g/m*3 17.5 C 0 km/h
8 25-05-2010 01:28:04 17.2 C 8.79 g/m*3 17.2 C 0 km/h
9 25-05-2010 01:40:04 16.8 C 9.01 g/m*3 16.8 C 0 km/h
10 25-05-2010 01:52:04 16.6 C 8.9 g/m*3 16.6 C 0 km/h
11 25-05-2010 02:04:04 16.2 C 8.96 g/m*3 16.2 C 0 km/h
12 25-05-2010 02:16:04 16.1 C 8.91 g/m*3 16.1 C 0 km/h
13 25-05-2010 02:28:04 16 C 8.86 g/m*3 16 C 0 km/h
14 25-05-2010 02:40:04 15.9 C 8.94 g/m*3 15.9 C 0 km/h
15 25-05-2010 02:52:04 15.8 C 9.02 g/m*3 15.8 C 0 km/h
16 25-05-2010 03:04:04 15.5 C 8.99 g/m*3 15.5 C 0 km/h
17 25-05-2010 03:16:04 15.2 C 9.09 g/m*3 15.2 C 0 km/h
18 25-05-2010 03:28:04 14.8 C 9.12 g/m*3 14.8 C 0 km/h
19 25-05-2010 03:40:04 14.7 C 9.19 g/m*3 14.7 C 0 km/h
20 25-05-2010 03:52:04 14.6 C 9.13 g/m*3 14.6 C 0 km/h
21 25-05-2010 04:04:04 14.6 C 9.13 g/m*3 14.6 C 0 km/h
22 25-05-2010 04:16:04 14.5 C 9.2 g/m*3 14.5 C 0 km/h
23 25-05-2010 04:28:04 14.1 C 9.1 g/m*3 14.1 C 0 km/h
24 25-05-2010 04:40:05 13.8 C 9.17 g/m*3 13.8 C 0 km/h
25 25-05-2010 04:52:05 13.9 C 9.23 g/m*3 13.9 C 0 km/h
Sensor: Nr:Datum:Temp:Abs-Feuchte:Windchill:Wind:
Aussen-T/F 26 25-05-2010 05:04:05 14.1 C 9.22 g/m*3 14.1 C 0 km/h
27 25-05-2010 05:16:05 14 C 9.05 g/m*3 14 C 0 km/h
28 25-05-2010 05:28:05 13.8 C 9.06 g/m*3 13.8 C 0 km/h
29 25-05-2010 05:40:05 13.8 C 9.17 g/m*3 13.8 C 0 km/h
30 25-05-2010 05:52:05 13.8 C 9.06 g/m*3 13.8 C 0 km/h
31 25-05-2010 06:04:05 14 C 9.17 g/m*3 14 C 0 km/h
32 25-05-2010 06:16:05 14.1 C 9.1 g/m*3 14.1 C 0 km/h
33 25-05-2010 06:28:05 14.5 C 9.33 g/m*3 14.5 C 0 km/h
34 25-05-2010 06:40:05 15 C 9.23 g/m*3 15 C 0 km/h
35 25-05-2010 06:52:05 15.3 C 9.27 g/m*3 15.3 C 0 km/h
36 25-05-2010 07:04:05 15.4 C 9.2 g/m*3 15.4 C 0 km/h
37 25-05-2010 07:16:05 15.5 C 8.99 g/m*3 15.5 C 0 km/h
38 25-05-2010 07:28:06 15.6 C 9.18 g/m*3 15.6 C 0 km/h
39 25-05-2010 07:40:06 15.6 C 9.04 g/m*3 15.6 C 0 km/h
40 25-05-2010 07:52:06 15.9 C 9.21 g/m*3 15.9 C 0 km/h
41 25-05-2010 08:04:06 16.1 C 9.18 g/m*3 16.1 C 0 km/h
42 25-05-2010 08:16:06 16.2 C 9.1 g/m*3 16.2 C 0 km/h
43 25-05-2010 08:28:06 16.5 C 8.99 g/m*3 16.5 C 0 km/h
44 25-05-2010 08:40:03 17.2 C 9.23 g/m*3 17.2 C 0 km/h
45 25-05-2010 08:52:01 17.9 C 9.16 g/m*3 17.9 C 0 km/h
46 25-05-2010 09:04:02 18.1 C 8.81 g/m*3 18.1 C 0 km/h
47 25-05-2010 09:16:01 18.2 C 8.39 g/m*3 18.2 C 0 km/h
48 25-05-2010 09:28:01 18.5 C 8.23 g/m*3 18.5 C 0 km/h
49 25-05-2010 09:40:02 18.9 C 7.45 g/m*3 18.9 C 0 km/h
50 25-05-2010 09:52:02 19.4 C 7.17 g/m*3 19.4 C 0 km/h
Sensor: Nr:Datum:Temp:Abs-Feuchte:Windchill:Wind:
Aussen-T/F 51 25-05-2010 10:04:02 19.8 C 7 g/m*3 19.8 C 0 km/h
52 25-05-2010 10:16:01 20.2 C 6.99 g/m*3 20.2 C 0 km/h
53 25-05-2010 10:28:01 20.9 C 6.92 g/m*3 20.9 C 0 km/h
54 25-05-2010 10:40:02 21.2 C 6.67 g/m*3 21.2 C 0 km/h
55 25-05-2010 10:52:02 21 C 6.59 g/m*3 21 C 0 km/h
56 25-05-2010 11:04:02 21.2 C 6.49 g/m*3 21.2 C 0 km/h
57 25-05-2010 11:16:02 21.2 C 7.04 g/m*3 21.2 C 0 km/h
58 25-05-2010 11:28:02 21.2 C 6.3 g/m*3 21.2 C 0 km/h
59 25-05-2010 11:40:02 21.8 C 6.33 g/m*3 21.8 C 0 km/h
60 25-05-2010 11:52:02 22.8 C 6.1 g/m*3 22.8 C 0 km/h
61 25-05-2010 12:04:01 22.6 C 5.42 g/m*3 22.6 C 0 km/h
62 25-05-2010 12:16:01 23.7 C 5.78 g/m*3 23.7 C 0 km/h
63 25-05-2010 12:28:01 23.5 C 5.71 g/m*3 23.5 C 0 km/h
64 25-05-2010 12:40:02 24 C 5.44 g/m*3 24 C 0 km/h
65 25-05-2010 12:52:02 25.9 C 6.05 g/m*3 25.9 C 0 km/h
66 25-05-2010 13:04:01 25.5 C 5.21 g/m*3 25.5 C 0 km/h
67 25-05-2010 13:16:02 26.2 C 5.42 g/m*3 26.2 C 0 km/h
68 25-05-2010 13:28:02 27.3 C 5.23 g/m*3 27.3 C 0 km/h
69 25-05-2010 13:40:01 27.8 C 5.38 g/m*3 27.8 C 0 km/h
70 25-05-2010 13:52:02 26.8 C 5.35 g/m*3 26.8 C 0 km/h
71 25-05-2010 14:04:01 25.3 C 5.15 g/m*3 25.3 C 0 km/h
72 25-05-2010 14:16:02 26.1 C 5.63 g/m*3 26.1 C 0 km/h
73 25-05-2010 14:28:03 26.5 C 5.76 g/m*3 26.5 C 0 km/h
74 25-05-2010 14:40:01 26.7 C 5.82 g/m*3 26.7 C 0 km/h
75 25-05-2010 14:52:02 27 C 5.4 g/m*3 27 C 0 km/h
Sensor: Nr:Datum:Temp:Abs-Feuchte:Windchill:Wind:
Aussen-T/F 76 25-05-2010 15:04:02 27.4 C 6.05 g/m*3 27.4 C 0 km/h
77 25-05-2010 15:16:02 26.3 C 5.69 g/m*3 26.3 C 0 km/h
78 25-05-2010 15:28:02 26.6 C 5.79 g/m*3 26.6 C 0 km/h
79 25-05-2010 15:40:02 26.5 C 5.51 g/m*3 26.5 C 0 km/h
80 25-05-2010 15:52:02 27.7 C 5.62 g/m*3 27.7 C 0 km/h
81 25-05-2010 16:04:02 28.1 C 5.47 g/m*3 28.1 C 0 km/h
82 25-05-2010 16:16:01 27.6 C 5.85 g/m*3 27.6 C 0 km/h
83 25-05-2010 16:28:01 27.9 C 5.95 g/m*3 27.9 C 0 km/h
84 25-05-2010 16:40:02 27.9 C 6.22 g/m*3 27.9 C 0 km/h
85 25-05-2010 16:52:02 28.1 C 5.74 g/m*3 28.1 C 0 km/h
86 25-05-2010 17:04:02 28.7 C 6.22 g/m*3 28.7 C 0 km/h
87 25-05-2010 17:16:02 27.5 C 5.82 g/m*3 27.5 C 0 km/h
88 25-05-2010 17:28:02 28.6 C 5.9 g/m*3 28.6 C 0 km/h
89 25-05-2010 17:40:02 28.1 C 6.02 g/m*3 28.1 C 0 km/h
90 25-05-2010 17:52:02 27.4 C 6.05 g/m*3 27.4 C 0 km/h
91 25-05-2010 18:04:02 27.2 C 5.99 g/m*3 27.2 C 0 km/h
92 25-05-2010 18:16:02 26 C 5.36 g/m*3 26 C 0 km/h
93 25-05-2010 18:28:02 27 C 5.66 g/m*3 27 C 0 km/h
94 25-05-2010 18:40:02 25.8 C 5.78 g/m*3 25.8 C 0 km/h
95 25-05-2010 18:52:02 25.6 C 5.71 g/m*3 25.6 C 0 km/h
96 25-05-2010 19:04:02 25.2 C 5.82 g/m*3 25.2 C 0 km/h
97 25-05-2010 19:16:02 25.2 C 5.82 g/m*3 25.2 C 0 km/h
98 25-05-2010 19:28:02 24 C 5.87 g/m*3 24 C 0 km/h
99 25-05-2010 19:40:02 24.2 C 5.94 g/m*3 24.2 C 0 km/h
100 25-05-2010 19:52:02 23.7 C 6.2 g/m*3 23.7 C 0 km/h
Sensor: Nr:Datum:Temp:Abs-Feuchte:Windchill:Wind:
Aussen-T/F 101 25-05-2010 20:04:02 23.5 C 6.13 g/m*3 23.5 C 0 km/h
102 25-05-2010 20:16:03 23.2 C 6.24 g/m*3 23.2 C 0 km/h
103 25-05-2010 20:28:03 22.8 C 6.3 g/m*3 22.8 C 0 km/h
104 25-05-2010 20:40:02 22.5 C 6.19 g/m*3 22.5 C 0 km/h
105 25-05-2010 20:52:02 22.2 C 6.28 g/m*3 22.2 C 0 km/h
106 25-05-2010 21:04:02 22 C 6.4 g/m*3 22 C 0 km/h
107 25-05-2010 21:16:02 21.7 C 6.87 g/m*3 21.7 C 0 km/h
108 25-05-2010 21:28:02 21.2 C 7.04 g/m*3 21.2 C 0 km/h
109 25-05-2010 21:40:02 20.7 C 7.2 g/m*3 20.7 C 0 km/h
110 25-05-2010 21:52:02 20.3 C 6.86 g/m*3 20.3 C 0 km/h
111 25-05-2010 22:04:02 19.7 C 6.79 g/m*3 19.7 C 0 km/h
112 25-05-2010 22:16:02 19.5 C 6.88 g/m*3 19.5 C 0 km/h
113 25-05-2010 22:28:02 19.3 C 6.97 g/m*3 19.3 C 0 km/h
114 25-05-2010 22:41:48 19.4 C 7.01 g/m*3 19.4 C 0 km/h
115 25-05-2010 22:53:48 19.3 C 6.8 g/m*3 19.3 C 0 km/h
116 25-05-2010 23:05:48 19.1 C 6.56 g/m*3 19.1 C 0 km/h
117 25-05-2010 23:17:48 18.8 C 6.76 g/m*3 18.8 C 0 km/h
118 25-05-2010 23:29:48 18.8 C 7.09 g/m*3 18.8 C 0 km/h
119 25-05-2010 23:41:48 18.7 C 6.88 g/m*3 18.7 C 0 km/h
120 25-05-2010 23:53:48 18.8 C 6.93 g/m*3 18.8 C 0 km/h
121 26-05-2010 00:05:48 18.9 C 6.8 g/m*3 18.9 C 0 km/h
122 26-05-2010 00:17:48 18.7 C 6.72 g/m*3 18.7 C 0 km/h
123 26-05-2010 00:29:48 18.5 C 6.8 g/m*3 18.5 C 0 km/h
124 26-05-2010 00:41:48 18.3 C 6.25 g/m*3 18.3 C 0 km/h
125 26-05-2010 00:53:48 18.2 C 6.22 g/m*3 18.2 C 0 km/h
Sensor: Nr:Datum:Temp:Abs-Feuchte:Windchill:Wind:
Aussen-T/F 126 26-05-2010 01:05:48 18.1 C 6.03 g/m*3 18.1 C 0 km/h
127 26-05-2010 01:17:49 18.1 C 6.03 g/m*3 18.1 C 0 km/h
128 26-05-2010 01:29:49 17.9 C 6.41 g/m*3 17.9 C 0 km/h
129 26-05-2010 01:41:49 15.8 C 7.81 g/m*3 15.8 C 0 km/h
130 26-05-2010 01:53:49 14.4 C 7.91 g/m*3 14.4 C 0 km/h
131 26-05-2010 02:05:49 14.2 C 8.3 g/m*3 14.2 C 0 km/h
132 26-05-2010 02:17:49 14.6 C 8.38 g/m*3 14.6 C 0 km/h
133 26-05-2010 02:29:49 14.6 C 8.38 g/m*3 14.6 C 0 km/h
134 26-05-2010 02:41:49 14.3 C 8.72 g/m*3 14.3 C 0 km/h
135 26-05-2010 02:53:49 14.4 C 9.02 g/m*3 14.4 C 0 km/h
136 26-05-2010 03:05:49 14.4 C 8.9 g/m*3 14.4 C 0 km/h
137 26-05-2010 03:17:50 14.5 C 8.58 g/m*3 14.5 C 0 km/h
138 26-05-2010 03:29:50 14.8 C 8.49 g/m*3 14.8 C 0 km/h
139 26-05-2010 03:41:50 14.7 C 8.18 g/m*3 14.7 C 0 km/h
140 26-05-2010 03:53:50 14.6 C 8.01 g/m*3 14.6 C 0 km/h
141 26-05-2010 04:05:50 14.8 C 7.85 g/m*3 14.8 C 0 km/h
142 26-05-2010 04:17:50 14.7 C 7.81 g/m*3 14.7 C 0 km/h
143 26-05-2010 04:29:50 14.7 C 7.68 g/m*3 14.7 C 0 km/h
144 26-05-2010 04:41:50 14.7 C 7.55 g/m*3 14.7 C 0 km/h
145 26-05-2010 04:53:50 14.7 C 7.55 g/m*3 14.7 C 0 km/h
146 26-05-2010 05:05:50 14.7 C 7.3 g/m*3 14.7 C 0 km/h
147 26-05-2010 05:17:50 14.7 C 7.43 g/m*3 14.7 C 0 km/h
148 26-05-2010 05:29:50 14.7 C 7.3 g/m*3 14.7 C 0 km/h
149 26-05-2010 05:41:50 14.7 C 7.43 g/m*3 14.7 C 0 km/h
150 26-05-2010 05:53:50 14.5 C 7.34 g/m*3 14.5 C 0 km/h
Sensor: Nr:Datum:Temp:Abs-Feuchte:Windchill:Wind:
Aussen-T/F 151 26-05-2010 06:05:50 14.7 C 7.55 g/m*3 14.7 C 0 km/h
152 26-05-2010 06:17:51 14.7 C 7.68 g/m*3 14.7 C 0 km/h
153 26-05-2010 06:29:51 14.5 C 7.84 g/m*3 14.5 C 0 km/h
154 26-05-2010 06:41:51 14.7 C 8.06 g/m*3 14.7 C 0 km/h
155 26-05-2010 06:53:51 14.8 C 7.85 g/m*3 14.8 C 0 km/h
156 26-05-2010 07:05:03 15 C 7.18 g/m*3 15 C 0 km/h
157 26-05-2010 07:17:02 15.4 C 6.83 g/m*3 15.4 C 0 km/h
158 26-05-2010 07:29:02 15.8 C 6.46 g/m*3 15.8 C 0 km/h
159 26-05-2010 07:41:03 16 C 6.27 g/m*3 16 C 0 km/h
160 26-05-2010 07:53:02 16.2 C 6.48 g/m*3 16.2 C 0 km/h
161 26-05-2010 08:05:02 16 C 6.4 g/m*3 16 C 0 km/h
162 26-05-2010 08:17:02 15.9 C 6.37 g/m*3 15.9 C 0 km/h
163 26-05-2010 08:29:02 15.8 C 6.33 g/m*3 15.8 C 0 km/h
164 26-05-2010 08:41:02 15.9 C 6.64 g/m*3 15.9 C 0 km/h
165 26-05-2010 08:53:02 16.2 C 6.48 g/m*3 16.2 C 0 km/h
166 26-05-2010 09:05:02 16.9 C 6.47 g/m*3 16.9 C 0 km/h
167 26-05-2010 09:17:02 17.1 C 6.11 g/m*3 17.1 C 0 km/h
168 26-05-2010 09:29:02 17 C 6.22 g/m*3 17 C 0 km/h
169 26-05-2010 09:41:01 16.4 C 6.7 g/m*3 16.4 C 0 km/h
170 26-05-2010 09:53:02 16 C 6.81 g/m*3 16 C 0 km/h
171 26-05-2010 10:05:01 16.4 C 6.56 g/m*3 16.4 C 0 km/h
172 26-05-2010 10:17:02 15.8 C 7.4 g/m*3 15.8 C 0 km/h
173 26-05-2010 10:29:02 15.1 C 8 g/m*3 15.1 C 0 km/h
174 26-05-2010 10:41:02 14.1 C 8.86 g/m*3 14.1 C 0 km/h
175 26-05-2010 10:53:02 14.2 C 9.4 g/m*3 14.2 C 0 km/h
Sensor: Nr:Datum:Temp:Abs-Feuchte:Windchill:Wind:
Aussen-T/F 176 26-05-2010 11:05:02 13.4 C 9.18 g/m*3 13.4 C 0 km/h
177 26-05-2010 11:17:02 12.9 C 9.35 g/m*3 12.9 C 0 km/h
178 26-05-2010 11:29:02 13.2 C 9.64 g/m*3 13.2 C 0 km/h
179 26-05-2010 11:41:02 13.3 C 9.82 g/m*3 13.3 C 0 km/h
180 26-05-2010 11:53:01 13.4 C 10 g/m*3 13.4 C 0 km/h
181 26-05-2010 12:05:02 13.2 C 9.87 g/m*3 13.2 C 0 km/h
182 26-05-2010 12:17:01 13.3 C 9.94 g/m*3 13.3 C 0 km/h
183 26-05-2010 12:29:01 13.2 C 9.87 g/m*3 13.2 C 0 km/h
184 26-05-2010 12:41:01 12.8 C 9.74 g/m*3 12.8 C 0 km/h
185 26-05-2010 12:53:01 13 C 9.87 g/m*3 13 C 0 km/h
186 26-05-2010 13:05:02 12.8 C 9.74 g/m*3 12.8 C 0 km/h
187 26-05-2010 13:17:02 13.2 C 10.1 g/m*3 13.2 C 0 km/h
188 26-05-2010 13:29:02 12.8 C 9.74 g/m*3 12.8 C 0 km/h
189 26-05-2010 13:41:01 12.6 C 9.51 g/m*3 12.6 C 0 km/h
190 26-05-2010 13:53:01 13 C 9.75 g/m*3 13 C 0 km/h
191 26-05-2010 14:05:01 13.9 C 9.83 g/m*3 13.9 C 0 km/h
192 26-05-2010 14:17:02 15.2 C 10.12 g/m*3 15.2 C 0 km/h
193 26-05-2010 14:29:02 15.8 C 9.83 g/m*3 15.8 C 0 km/h
194 26-05-2010 14:41:01 15.6 C 9.44 g/m*3 15.6 C 0 km/h
195 26-05-2010 14:53:03 15.5 C 9.39 g/m*3 15.5 C 0 km/h
196 26-05-2010 15:05:02 15.4 C 9.33 g/m*3 15.4 C 0 km/h
197 26-05-2010 15:17:02 14.5 C 9.45 g/m*3 14.5 C 0 km/h
198 26-05-2010 15:29:02 14.1 C 9.59 g/m*3 14.1 C 0 km/h
199 26-05-2010 15:41:02 14.4 C 10.01 g/m*3 14.4 C 0 km/h
200 26-05-2010 15:53:02 15.4 C 10.77 g/m*3 15.4 C 0 km/h
Sensor: Nr:Datum:Temp:Abs-Feuchte:Windchill:Wind:
Aussen-T/F 201 26-05-2010 16:05:01 17.8 C 11.23 g/m*3 17.8 C 0 km/h
202 26-05-2010 16:17:02 19.4 C 11.18 g/m*3 19.4 C 0 km/h
203 26-05-2010 16:29:02 20.3 C 10.73 g/m*3 20.3 C 0 km/h
204 26-05-2010 16:41:02 18.8 C 9.99 g/m*3 18.8 C 0 km/h
205 26-05-2010 16:53:02 18.5 C 9.97 g/m*3 18.5 C 0 km/h
206 26-05-2010 17:05:03 16.8 C 10.58 g/m*3 16.8 C 0 km/h
207 26-05-2010 17:17:02 16.2 C 10.76 g/m*3 16.2 C 0 km/h
208 26-05-2010 17:29:02 15.6 C 11.17 g/m*3 15.6 C 0 km/h
209 26-05-2010 17:41:02 16.2 C 11.86 g/m*3 16.2 C 0 km/h
210 26-05-2010 17:53:02 17.1 C 12.52 g/m*3 17.1 C 0 km/h
211 26-05-2010 18:05:02 16.1 C 11.51 g/m*3 16.1 C 0 km/h
212 26-05-2010 18:17:02 15.5 C 11.5 g/m*3 15.5 C 0 km/h
213 26-05-2010 18:29:02 17 C 12.73 g/m*3 17 C 0 km/h
214 26-05-2010 18:41:01 18.7 C 13.93 g/m*3 18.7 C 0 km/h
215 26-05-2010 18:53:02 18.8 C 13.69 g/m*3 18.8 C 0 km/h
216 26-05-2010 19:05:01 19.1 C 13.28 g/m*3 19.1 C 0 km/h
217 26-05-2010 19:17:01 19.2 C 13.19 g/m*3 19.2 C 0 km/h
218 26-05-2010 19:29:01 19.2 C 13.03 g/m*3 19.2 C 0 km/h
219 26-05-2010 19:41:02 19.3 C 12.77 g/m*3 19.3 C 0 km/h
220 26-05-2010 19:53:02 18.1 C 11.9 g/m*3 18.1 C 0 km/h
221 26-05-2010 20:05:02 17.2 C 11.72 g/m*3 17.2 C 0 km/h
222 26-05-2010 20:17:02 17.2 C 11.86 g/m*3 17.2 C 0 km/h
223 26-05-2010 20:29:02 17 C 11.87 g/m*3 17 C 0 km/h
224 26-05-2010 20:41:02 16.7 C 11.8 g/m*3 16.7 C 0 km/h
225 26-05-2010 20:53:02 16.2 C 11.58 g/m*3 16.2 C 0 km/h
Sensor: Nr:Datum:Temp:Abs-Feuchte:Windchill:Wind:
Aussen-T/F 226 26-05-2010 21:05:03 16.1 C 11.65 g/m*3 16.1 C 0 km/h
227 26-05-2010 21:17:02 16 C 11.72 g/m*3 16 C 0 km/h
228 26-05-2010 21:29:02 15.7 C 10.97 g/m*3 15.7 C 0 km/h
229 26-05-2010 21:41:03 14.6 C 9.89 g/m*3 14.6 C 0 km/h
230 26-05-2010 21:53:02 13.6 C 9.18 g/m*3 13.6 C 0 km/h
231 26-05-2010 22:05:02 13.1 C 8.9 g/m*3 13.1 C 0 km/h
232 26-05-2010 22:18:04 13.1 C 9.01 g/m*3 13.1 C 0 km/h
233 26-05-2010 22:30:04 12.9 C 9.02 g/m*3 12.9 C 0 km/h
234 26-05-2010 22:42:04 12.6 C 8.63 g/m*3 12.6 C 0 km/h
235 26-05-2010 22:54:04 12.6 C 8.63 g/m*3 12.6 C 0 km/h
236 26-05-2010 23:06:04 12.7 C 8.91 g/m*3 12.7 C 0 km/h
237 26-05-2010 23:18:04 12.5 C 8.47 g/m*3 12.5 C 0 km/h
238 26-05-2010 23:30:04 12.4 C 8.3 g/m*3 12.4 C 0 km/h
239 26-05-2010 23:42:05 12.5 C 8.47 g/m*3 12.5 C 0 km/h
240 26-05-2010 23:54:05 12.5 C 8.36 g/m*3 12.5 C 0 km/h
241 27-05-2010 00:06:05 12.5 C 8.47 g/m*3 12.5 C 0 km/h
242 27-05-2010 00:18:05 12.4 C 8.41 g/m*3 12.4 C 0 km/h
243 27-05-2010 00:30:05 12.4 C 8.41 g/m*3 12.4 C 0 km/h
244 27-05-2010 00:42:05 12.3 C 8.36 g/m*3 12.3 C 0 km/h
245 27-05-2010 00:54:05 12.2 C 8.31 g/m*3 12.2 C 0 km/h
246 27-05-2010 01:06:05 12.3 C 8.25 g/m*3 12.3 C 0 km/h
247 27-05-2010 01:18:05 12.2 C 8.2 g/m*3 12.2 C 0 km/h
248 27-05-2010 01:30:05 11.7 C 7.95 g/m*3 11.7 C 0 km/h
249 27-05-2010 01:42:05 11.8 C 8.21 g/m*3 11.8 C 0 km/h
250 27-05-2010 01:54:05 11.5 C 8.16 g/m*3 11.5 C 0 km/h
Sensor: Nr:Datum:Temp:Abs-Feuchte:Windchill:Wind:
Aussen-T/F 251 27-05-2010 02:06:05 11.4 C 8.21 g/m*3 11.4 C 0 km/h
252 27-05-2010 02:18:05 11.3 C 8.16 g/m*3 11.3 C 0 km/h
253 27-05-2010 02:30:05 11.2 C 8.01 g/m*3 11.2 C 0 km/h
254 27-05-2010 02:42:05 11.2 C 8.11 g/m*3 11.2 C 0 km/h
255 27-05-2010 02:54:05 11.1 C 8.06 g/m*3 11.1 C 0 km/h
256 27-05-2010 03:06:05 11.1 C 8.06 g/m*3 11.1 C 0 km/h
257 27-05-2010 03:18:05 11.3 C 8.06 g/m*3 11.3 C 0 km/h
258 27-05-2010 03:30:05 11.2 C 8.01 g/m*3 11.2 C 0 km/h
259 27-05-2010 03:42:05 11.2 C 7.91 g/m*3 11.2 C 0 km/h
260 27-05-2010 03:54:05 11 C 7.81 g/m*3 11 C 0 km/h
261 27-05-2010 04:06:06 11 C 7.91 g/m*3 11 C 0 km/h
262 27-05-2010 04:18:06 11 C 7.91 g/m*3 11 C 0 km/h
263 27-05-2010 04:30:06 10.9 C 7.86 g/m*3 10.9 C 0 km/h
264 27-05-2010 04:42:06 10.8 C 7.81 g/m*3 10.8 C 0 km/h
265 27-05-2010 04:54:06 10.7 C 7.76 g/m*3 10.7 C 0 km/h
266 27-05-2010 05:06:06 10.7 C 7.76 g/m*3 10.7 C 0 km/h
267 27-05-2010 05:18:06 10.7 C 7.76 g/m*3 10.7 C 0 km/h
268 27-05-2010 05:30:06 10.7 C 7.76 g/m*3 10.7 C 0 km/h
269 27-05-2010 05:42:06 10.8 C 7.81 g/m*3 10.8 C 0 km/h
270 27-05-2010 05:54:06 10.8 C 7.81 g/m*3 10.8 C 0 km/h
271 27-05-2010 06:06:06 10.8 C 7.81 g/m*3 10.8 C 0 km/h
272 27-05-2010 06:18:06 10.9 C 7.86 g/m*3 10.9 C 0 km/h
273 27-05-2010 06:30:06 11.1 C 7.86 g/m*3 11.1 C 0 km/h
274 27-05-2010 06:42:03 11.1 C 7.86 g/m*3 11.1 C 0 km/h
275 27-05-2010 06:54:02 11.1 C 7.86 g/m*3 11.1 C 0 km/h
Sensor: Nr:Datum:Temp:Abs-Feuchte:Windchill:Wind:
Aussen-T/F 276 27-05-2010 07:06:02 11.1 C 7.96 g/m*3 11.1 C 0 km/h
277 27-05-2010 07:18:03 11.2 C 7.91 g/m*3 11.2 C 0 km/h
278 27-05-2010 07:30:03 11.4 C 7.9 g/m*3 11.4 C 0 km/h
279 27-05-2010 07:42:02 11.5 C 8.06 g/m*3 11.5 C 0 km/h
280 27-05-2010 07:54:03 11.3 C 7.96 g/m*3 11.3 C 0 km/h
281 27-05-2010 08:06:02 11.4 C 8.11 g/m*3 11.4 C 0 km/h
282 27-05-2010 08:18:02 11.7 C 8.16 g/m*3 11.7 C 0 km/h
283 27-05-2010 08:30:03 11.7 C 8.16 g/m*3 11.7 C 0 km/h
284 27-05-2010 08:42:02 12 C 8.1 g/m*3 12 C 0 km/h
285 27-05-2010 08:54:02 11.8 C 7.79 g/m*3 11.8 C 0 km/h
286 27-05-2010 09:06:01 12 C 7.89 g/m*3 12 C 0 km/h
287 27-05-2010 09:18:02 11.9 C 7.73 g/m*3 11.9 C 0 km/h
288 27-05-2010 09:30:02 11.8 C 7.79 g/m*3 11.8 C 0 km/h
289 27-05-2010 09:42:01 12.2 C 7.88 g/m*3 12.2 C 0 km/h
290 27-05-2010 09:54:02 12.2 C 7.66 g/m*3 12.2 C 0 km/h
291 27-05-2010 10:06:02 12.4 C 7.65 g/m*3 12.4 C 0 km/h
292 27-05-2010 10:18:02 13 C 7.71 g/m*3 13 C 0 km/h
293 27-05-2010 10:30:02 13.2 C 7.58 g/m*3 13.2 C 0 km/h
294 27-05-2010 10:42:03 13.4 C 7.56 g/m*3 13.4 C 0 km/h
295 27-05-2010 10:54:02 13.2 C 7.23 g/m*3 13.2 C 0 km/h
296 27-05-2010 11:06:02 14.1 C 7.16 g/m*3 14.1 C 0 km/h
297 27-05-2010 11:18:01 14.6 C 7.13 g/m*3 14.6 C 0 km/h
298 27-05-2010 11:30:01 14.4 C 7.17 g/m*3 14.4 C 0 km/h
299 27-05-2010 11:42:02 15 C 6.8 g/m*3 15 C 0 km/h
300 27-05-2010 11:54:02 15.9 C 7.31 g/m*3 15.9 C 0 km/h
Sensor: Nr:Datum:Temp:Abs-Feuchte:Windchill:Wind:
Aussen-T/F 301 27-05-2010 12:06:02 16.1 C 6.72 g/m*3 16.1 C 0 km/h
302 27-05-2010 12:18:01 16.4 C 6.7 g/m*3 16.4 C 0 km/h
303 27-05-2010 12:30:01 16.7 C 6.82 g/m*3 16.7 C 0 km/h
304 27-05-2010 12:42:02 16 C 6.68 g/m*3 16 C 0 km/h
305 27-05-2010 12:54:02 15.5 C 6.74 g/m*3 15.5 C 0 km/h
306 27-05-2010 13:06:02 16 C 6.68 g/m*3 16 C 0 km/h
307 27-05-2010 13:18:02 16.5 C 6.74 g/m*3 16.5 C 0 km/h
308 27-05-2010 13:30:02 17.6 C 6.45 g/m*3 17.6 C 0 km/h
309 27-05-2010 13:42:02 18 C 6.45 g/m*3 18 C 0 km/h
310 27-05-2010 13:54:02 19.1 C 6.39 g/m*3 19.1 C 0 km/h
311 27-05-2010 14:06:03 19.6 C 6.58 g/m*3 19.6 C 0 km/h
312 27-05-2010 14:18:02 18.7 C 6.08 g/m*3 18.7 C 0 km/h
313 27-05-2010 14:30:02 20.6 C 7.16 g/m*3 20.6 C 0 km/h
314 27-05-2010 14:42:02 21.7 C 6.68 g/m*3 21.7 C 0 km/h
315 27-05-2010 14:54:02 22.5 C 6.59 g/m*3 22.5 C 0 km/h
316 27-05-2010 15:06:01 22.5 C 6.79 g/m*3 22.5 C 0 km/h
317 27-05-2010 15:18:02 21.5 C 6.22 g/m*3 21.5 C 0 km/h
318 27-05-2010 15:30:02 21.9 C 6.18 g/m*3 21.9 C 0 km/h
319 27-05-2010 15:42:02 22.3 C 6.12 g/m*3 22.3 C 0 km/h
320 27-05-2010 15:54:03 23.3 C 6.69 g/m*3 23.3 C 0 km/h
321 27-05-2010 16:06:02 23.7 C 5.99 g/m*3 23.7 C 0 km/h
322 27-05-2010 16:18:02 23.5 C 6.34 g/m*3 23.5 C 0 km/h
323 27-05-2010 16:30:02 23.3 C 6.48 g/m*3 23.3 C 0 km/h
324 27-05-2010 16:42:02 22.9 C 6.74 g/m*3 22.9 C 0 km/h
325 27-05-2010 16:54:02 23.4 C 6.73 g/m*3 23.4 C 0 km/h
Sensor: Nr:Datum:Temp:Abs-Feuchte:Windchill:Wind:
Aussen-T/F 326 27-05-2010 17:06:02 23.6 C 6.59 g/m*3 23.6 C 0 km/h
327 27-05-2010 17:18:02 23.3 C 6.48 g/m*3 23.3 C 0 km/h
328 27-05-2010 17:30:02 23.5 C 6.56 g/m*3 23.5 C 0 km/h
329 27-05-2010 17:42:02 23.4 C 6.73 g/m*3 23.4 C 0 km/h
330 27-05-2010 17:54:01 23.4 C 6.94 g/m*3 23.4 C 0 km/h
331 27-05-2010 18:06:02 24.1 C 6.78 g/m*3 24.1 C 0 km/h
332 27-05-2010 18:18:02 23.3 C 6.69 g/m*3 23.3 C 0 km/h
333 27-05-2010 18:30:02 22.3 C 7.5 g/m*3 22.3 C 0 km/h
334 27-05-2010 18:42:02 22.4 C 7.35 g/m*3 22.4 C 0 km/h
335 27-05-2010 18:54:01 23.3 C 7.32 g/m*3 23.3 C 0 km/h
336 27-05-2010 19:06:02 22.7 C 7.88 g/m*3 22.7 C 0 km/h
337 27-05-2010 19:18:02 21.6 C 7.78 g/m*3 21.6 C 0 km/h
338 27-05-2010 19:30:02 20.6 C 8.59 g/m*3 20.6 C 0 km/h
339 27-05-2010 19:42:01 19.9 C 8.76 g/m*3 19.9 C 0 km/h
340 27-05-2010 19:54:02 19.4 C 8.51 g/m*3 19.4 C 0 km/h
341 27-05-2010 20:06:01 19.1 C 8.36 g/m*3 19.1 C 0 km/h
342 27-05-2010 20:18:02 18.7 C 8.49 g/m*3 18.7 C 0 km/h
343 27-05-2010 20:30:02 18.3 C 8.44 g/m*3 18.3 C 0 km/h
344 27-05-2010 20:42:01 17.5 C 9.39 g/m*3 17.5 C 0 km/h
345 27-05-2010 20:54:01 16.6 C 9.61 g/m*3 16.6 C 0 km/h
346 27-05-2010 21:06:02 15.8 C 9.56 g/m*3 15.8 C 0 km/h
347 27-05-2010 21:18:01 15.6 C 9.58 g/m*3 15.6 C 0 km/h
348 27-05-2010 21:30:01 15.8 C 9.69 g/m*3 15.8 C 0 km/h
349 27-05-2010 21:42:01 15.9 C 9.62 g/m*3 15.9 C 0 km/h
350 27-05-2010 21:54:01 15.8 C 9.29 g/m*3 15.8 C 0 km/h
Sensor: Nr:Datum:Temp:Abs-Feuchte:Windchill:Wind:
Aussen-T/F 351 27-05-2010 22:06:01 16 C 9.4 g/m*3 16 C 0 km/h
352 27-05-2010 22:18:01 16.1 C 9.18 g/m*3 16.1 C 0 km/h
353 27-05-2010 22:30:01 16.2 C 9.24 g/m*3 16.2 C 0 km/h
354 27-05-2010 22:42:02 16 C 9.13 g/m*3 16 C 0 km/h
355 27-05-2010 22:55:03 16 C 9.4 g/m*3 16 C 0 km/h
356 27-05-2010 23:07:03 15.6 C 9.71 g/m*3 15.6 C 0 km/h
357 27-05-2010 23:19:03 15.6 C 9.71 g/m*3 15.6 C 0 km/h
358 27-05-2010 23:31:03 15.7 C 9.77 g/m*3 15.7 C 0 km/h
359 27-05-2010 23:43:03 15.6 C 9.71 g/m*3 15.6 C 0 km/h
360 27-05-2010 23:55:03 15.3 C 9.66 g/m*3 15.3 C 0 km/h
361 28-05-2010 00:07:03 14.9 C 9.69 g/m*3 14.9 C 0 km/h
362 28-05-2010 00:19:03 14.9 C 9.81 g/m*3 14.9 C 0 km/h
363 28-05-2010 00:31:03 15 C 9.75 g/m*3 15 C 0 km/h
364 28-05-2010 00:43:03 15 C 9.49 g/m*3 15 C 0 km/h
365 28-05-2010 00:55:03 15.2 C 9.48 g/m*3 15.2 C 0 km/h
366 28-05-2010 01:07:03 15.2 C 9.35 g/m*3 15.2 C 0 km/h
367 28-05-2010 01:19:03 15.2 C 9.22 g/m*3 15.2 C 0 km/h
368 28-05-2010 01:31:03 15.2 C 9.09 g/m*3 15.2 C 0 km/h
369 28-05-2010 01:43:03 15.1 C 9.03 g/m*3 15.1 C 0 km/h
370 28-05-2010 01:55:03 15 C 9.1 g/m*3 15 C 0 km/h
371 28-05-2010 02:07:04 14.8 C 9.12 g/m*3 14.8 C 0 km/h
372 28-05-2010 02:19:04 14.9 C 9.3 g/m*3 14.9 C 0 km/h
373 28-05-2010 02:31:04 14.8 C 9.25 g/m*3 14.8 C 0 km/h
374 28-05-2010 02:43:04 14.9 C 9.3 g/m*3 14.9 C 0 km/h
375 28-05-2010 02:55:04 14.9 C 9.18 g/m*3 14.9 C 0 km/h
Sensor: Nr:Datum:Temp:Abs-Feuchte:Windchill:Wind:
Aussen-T/F 376 28-05-2010 03:07:04 14.9 C 9.18 g/m*3 14.9 C 0 km/h
377 28-05-2010 03:19:04 15 C 9.1 g/m*3 15 C 0 km/h
378 28-05-2010 03:31:04 14.7 C 9.19 g/m*3 14.7 C 0 km/h
379 28-05-2010 03:43:04 14.7 C 9.19 g/m*3 14.7 C 0 km/h
380 28-05-2010 03:55:04 14.6 C 9.13 g/m*3 14.6 C 0 km/h
381 28-05-2010 04:07:04 14.6 C 9.01 g/m*3 14.6 C 0 km/h
382 28-05-2010 04:19:04 14.6 C 9.01 g/m*3 14.6 C 0 km/h
383 28-05-2010 04:31:04 14.5 C 8.95 g/m*3 14.5 C 0 km/h
384 28-05-2010 04:43:04 14.1 C 9.34 g/m*3 14.1 C 0 km/h
385 28-05-2010 04:55:04 14 C 9.65 g/m*3 14 C 0 km/h
386 28-05-2010 05:07:04 13.8 C 9.77 g/m*3 13.8 C 0 km/h
387 28-05-2010 05:19:04 13.7 C 9.83 g/m*3 13.7 C 0 km/h
388 28-05-2010 05:31:04 13.7 C 9.83 g/m*3 13.7 C 0 km/h
389 28-05-2010 05:43:04 13.7 C 9.95 g/m*3 13.7 C 0 km/h
390 28-05-2010 05:55:04 13.6 C 10 g/m*3 13.6 C 0 km/h
391 28-05-2010 06:07:04 13.6 C 10 g/m*3 13.6 C 0 km/h
392 28-05-2010 06:19:04 13.5 C 9.94 g/m*3 13.5 C 0 km/h
393 28-05-2010 06:31:04 13.5 C 10.06 g/m*3 13.5 C 0 km/h
394 28-05-2010 06:43:05 13.7 C 10.18 g/m*3 13.7 C 0 km/h
395 28-05-2010 06:55:05 13.8 C 10.37 g/m*3 13.8 C 0 km/h
396 28-05-2010 07:07:03 13.8 C 10.37 g/m*3 13.8 C 0 km/h
397 28-05-2010 07:19:03 13.8 C 10.37 g/m*3 13.8 C 0 km/h
398 28-05-2010 07:31:02 14.1 C 10.56 g/m*3 14.1 C 0 km/h
399 28-05-2010 07:43:02 14.1 C 10.56 g/m*3 14.1 C 0 km/h
400 28-05-2010 07:55:01 14.1 C 10.56 g/m*3 14.1 C 0 km/h
Sensor: Nr:Datum:Temp:Abs-Feuchte:Windchill:Wind:
Aussen-T/F 401 28-05-2010 08:07:02 14.2 C 10.5 g/m*3 14.2 C 0 km/h
402 28-05-2010 08:19:02 14.1 C 10.44 g/m*3 14.1 C 0 km/h
403 28-05-2010 08:31:01 14.2 C 10.5 g/m*3 14.2 C 0 km/h
404 28-05-2010 08:43:01 14.5 C 10.7 g/m*3 14.5 C 0 km/h
405 28-05-2010 08:55:01 14.8 C 10.77 g/m*3 14.8 C 0 km/h
406 28-05-2010 09:07:01 15.2 C 10.64 g/m*3 15.2 C 0 km/h
407 28-05-2010 09:19:02 15.2 C 10.25 g/m*3 15.2 C 0 km/h
408 28-05-2010 09:31:01 15.2 C 9.48 g/m*3 15.2 C 0 km/h
409 28-05-2010 09:43:01 15.8 C 9.29 g/m*3 15.8 C 0 km/h
410 28-05-2010 09:55:03 14.2 C 8.91 g/m*3 14.2 C 0 km/h
411 28-05-2010 10:07:02 15.5 C 9.25 g/m*3 15.5 C 0 km/h
412 28-05-2010 10:19:02 15.5 C 8.59 g/m*3 15.5 C 0 km/h
413 28-05-2010 10:31:02 15.6 C 8.25 g/m*3 15.6 C 0 km/h
414 28-05-2010 10:43:02 15.6 C 8.51 g/m*3 15.6 C 0 km/h
415 28-05-2010 10:55:02 16 C 8.17 g/m*3 16 C 0 km/h
416 28-05-2010 11:07:02 16.3 C 7.63 g/m*3 16.3 C 0 km/h
417 28-05-2010 11:19:02 17.6 C 7.65 g/m*3 17.6 C 0 km/h
418 28-05-2010 11:31:02 16.9 C 7.05 g/m*3 16.9 C 0 km/h
419 28-05-2010 11:43:02 18 C 7.22 g/m*3 18 C 0 km/h
420 28-05-2010 11:55:02 17.2 C 6.74 g/m*3 17.2 C 0 km/h
421 28-05-2010 12:07:01 17.8 C 6.83 g/m*3 17.8 C 0 km/h
422 28-05-2010 12:19:01 16.9 C 7.34 g/m*3 16.9 C 0 km/h
423 28-05-2010 12:31:02 17.5 C 7.01 g/m*3 17.5 C 0 km/h
424 28-05-2010 12:43:02 19.3 C 7.13 g/m*3 19.3 C 0 km/h
425 28-05-2010 12:55:02 20.5 C 7.3 g/m*3 20.5 C 0 km/h
Sensor: Nr:Datum:Temp:Abs-Feuchte:Windchill:Wind:
Aussen-T/F 426 28-05-2010 13:07:02 20.4 C 6.72 g/m*3 20.4 C 0 km/h
427 28-05-2010 13:19:02 21.9 C 6.95 g/m*3 21.9 C 0 km/h
428 28-05-2010 13:31:02 21 C 6.41 g/m*3 21 C 0 km/h
429 28-05-2010 13:43:02 19.3 C 6.63 g/m*3 19.3 C 0 km/h
430 28-05-2010 13:55:02 18.6 C 6.37 g/m*3 18.6 C 0 km/h
431 28-05-2010 14:07:03 20 C 6.39 g/m*3 20 C 0 km/h
432 28-05-2010 14:19:02 21.2 C 6.49 g/m*3 21.2 C 0 km/h
433 28-05-2010 14:31:02 19.1 C 6.07 g/m*3 19.1 C 0 km/h
434 28-05-2010 14:43:02 18.2 C 6.22 g/m*3 18.2 C 0 km/h
435 28-05-2010 14:55:01 18.5 C 5.85 g/m*3 18.5 C 0 km/h
436 28-05-2010 15:07:02 19.1 C 5.9 g/m*3 19.1 C 0 km/h
437 28-05-2010 15:19:01 21.6 C 5.88 g/m*3 21.6 C 0 km/h
438 28-05-2010 15:31:01 22.6 C 5.42 g/m*3 22.6 C 0 km/h
439 28-05-2010 15:43:01 22.1 C 4.88 g/m*3 22.1 C 0 km/h
440 28-05-2010 15:55:01 23.2 C 4.99 g/m*3 23.2 C 0 km/h
441 28-05-2010 16:07:02 22.6 C 4.62 g/m*3 22.6 C 0 km/h
442 28-05-2010 16:19:02 23.4 C 4.63 g/m*3 23.4 C 0 km/h
443 28-05-2010 16:31:01 23.5 C 4.44 g/m*3 23.5 C 0 km/h
444 28-05-2010 16:43:01 22.6 C 4.02 g/m*3 22.6 C 0 km/h
445 28-05-2010 16:55:01 23.2 C 4.16 g/m*3 23.2 C 0 km/h
446 28-05-2010 17:07:01 22.2 C 3.93 g/m*3 22.2 C 0 km/h
447 28-05-2010 17:19:02 23 C 4.11 g/m*3 23 C 0 km/h
448 28-05-2010 17:31:01 24.2 C 4.4 g/m*3 24.2 C 0 km/h
449 28-05-2010 17:43:01 23.3 C 4.18 g/m*3 23.3 C 0 km/h
450 28-05-2010 17:55:03 23.3 C 4.18 g/m*3 23.3 C 0 km/h
Sensor: Nr:Datum:Temp:Abs-Feuchte:Windchill:Wind:
Aussen-T/F 451 28-05-2010 18:07:02 22.7 C 4.04 g/m*3 22.7 C 0 km/h
452 28-05-2010 18:19:02 22.8 C 4.06 g/m*3 22.8 C 0 km/h
453 28-05-2010 18:31:02 23.1 C 4.13 g/m*3 23.1 C 0 km/h
454 28-05-2010 18:43:02 22.5 C 3.99 g/m*3 22.5 C 0 km/h
455 28-05-2010 18:55:02 22 C 4.27 g/m*3 22 C 0 km/h
456 28-05-2010 19:07:01 21.7 C 4.77 g/m*3 21.7 C 0 km/h
457 28-05-2010 19:19:02 22 C 4.27 g/m*3 22 C 0 km/h
458 28-05-2010 19:31:02 22.5 C 4.79 g/m*3 22.5 C 0 km/h
459 28-05-2010 19:43:02 22.1 C 4.88 g/m*3 22.1 C 0 km/h
460 28-05-2010 19:55:01 22.4 C 4.57 g/m*3 22.4 C 0 km/h
461 28-05-2010 20:07:01 21.2 C 4.63 g/m*3 21.2 C 0 km/h
462 28-05-2010 20:19:01 19.7 C 4.92 g/m*3 19.7 C 0 km/h
463 28-05-2010 20:31:01 19.2 C 5.11 g/m*3 19.2 C 0 km/h
464 28-05-2010 20:43:01 19.3 C 5.14 g/m*3 19.3 C 0 km/h
465 28-05-2010 20:55:02 19 C 5.05 g/m*3 19 C 0 km/h
466 28-05-2010 21:07:02 18.6 C 5.09 g/m*3 18.6 C 0 km/h
467 28-05-2010 21:19:02 18.1 C 5.25 g/m*3 18.1 C 0 km/h
468 28-05-2010 21:31:02 17.4 C 5.34 g/m*3 17.4 C 0 km/h
469 28-05-2010 21:43:02 17 C 5.35 g/m*3 17 C 0 km/h
470 28-05-2010 21:55:02 16.6 C 5.65 g/m*3 16.6 C 0 km/h
471 28-05-2010 22:07:02 16.1 C 5.76 g/m*3 16.1 C 0 km/h
472 28-05-2010 22:19:01 15.7 C 6.02 g/m*3 15.7 C 0 km/h
473 28-05-2010 22:32:03 15.6 C 5.85 g/m*3 15.6 C 0 km/h
474 28-05-2010 22:44:03 15.4 C 6.04 g/m*3 15.4 C 0 km/h
475 28-05-2010 22:56:03 15 C 6.03 g/m*3 15 C 0 km/h
Sensor: Nr:Datum:Temp:Abs-Feuchte:Windchill:Wind:
Aussen-T/F 476 28-05-2010 23:08:03 14.7 C 6.04 g/m*3 14.7 C 0 km/h
477 28-05-2010 23:20:03 14.5 C 5.97 g/m*3 14.5 C 0 km/h
478 28-05-2010 23:32:03 14.2 C 6.11 g/m*3 14.2 C 0 km/h
479 28-05-2010 23:44:03 13.6 C 6.47 g/m*3 13.6 C 0 km/h
480 28-05-2010 23:56:03 13.3 C 6.47 g/m*3 13.3 C 0 km/h
481 29-05-2010 00:08:03 13.1 C 6.5 g/m*3 13.1 C 0 km/h
482 29-05-2010 00:20:03 13.1 C 6.62 g/m*3 13.1 C 0 km/h
483 29-05-2010 00:32:03 12.9 C 6.65 g/m*3 12.9 C 0 km/h
484 29-05-2010 00:44:03 12.7 C 6.68 g/m*3 12.7 C 0 km/h
485 29-05-2010 00:56:03 12.5 C 6.71 g/m*3 12.5 C 0 km/h
486 29-05-2010 01:08:03 12.3 C 6.62 g/m*3 12.3 C 0 km/h
487 29-05-2010 01:20:03 12.1 C 6.65 g/m*3 12.1 C 0 km/h
488 29-05-2010 01:32:04 11.9 C 6.78 g/m*3 11.9 C 0 km/h
489 29-05-2010 01:44:04 11.7 C 6.9 g/m*3 11.7 C 0 km/h
490 29-05-2010 01:56:04 11.6 C 6.86 g/m*3 11.6 C 0 km/h
491 29-05-2010 02:08:04 11.3 C 6.94 g/m*3 11.3 C 0 km/h
492 29-05-2010 02:20:04 11 C 6.91 g/m*3 11 C 0 km/h
493 29-05-2010 02:32:04 10.7 C 6.97 g/m*3 10.7 C 0 km/h
494 29-05-2010 02:44:04 10.6 C 6.93 g/m*3 10.6 C 0 km/h
495 29-05-2010 02:56:04 10.5 C 6.98 g/m*3 10.5 C 0 km/h
496 29-05-2010 03:08:04 10.2 C 6.95 g/m*3 10.2 C 0 km/h
497 29-05-2010 03:20:04 10.1 C 7 g/m*3 10.1 C 0 km/h
498 29-05-2010 03:32:04 9.9 C 7 g/m*3 9.9 C 0 km/h
499 29-05-2010 03:44:04 9.9 C 7.1 g/m*3 9.9 C 0 km/h
500 29-05-2010 03:56:04 9.8 C 7.05 g/m*3 9.8 C 0 km/h
Sensor: Nr:Datum:Temp:Abs-Feuchte:Windchill:Wind:
Aussen-T/F 501 29-05-2010 04:08:04 9.8 C 7.05 g/m*3 9.8 C 0 km/h
502 29-05-2010 04:20:04 9.7 C 7.1 g/m*3 9.7 C 0 km/h
503 29-05-2010 04:32:04 9.7 C 7.1 g/m*3 9.7 C 0 km/h
504 29-05-2010 04:44:04 9.6 C 7.05 g/m*3 9.6 C 0 km/h
505 29-05-2010 04:56:04 9.7 C 7.1 g/m*3 9.7 C 0 km/h
506 29-05-2010 05:08:04 9.6 C 6.96 g/m*3 9.6 C 0 km/h
507 29-05-2010 05:20:04 9.5 C 7.01 g/m*3 9.5 C 0 km/h
508 29-05-2010 05:32:05 9.5 C 7.01 g/m*3 9.5 C 0 km/h
509 29-05-2010 05:44:05 9.5 C 7.01 g/m*3 9.5 C 0 km/h
510 29-05-2010 05:56:05 9.3 C 7.01 g/m*3 9.3 C 0 km/h
511 29-05-2010 06:08:05 9.4 C 7.05 g/m*3 9.4 C 0 km/h
512 29-05-2010 06:20:05 9.6 C 7.15 g/m*3 9.6 C 0 km/h
513 29-05-2010 06:32:05 9.9 C 7.28 g/m*3 9.9 C 0 km/h
514 29-05-2010 06:44:05 10 C 7.14 g/m*3 10 C 0 km/h
515 29-05-2010 06:56:05 10 C 7.05 g/m*3 10 C 0 km/h
516 29-05-2010 07:08:05 9.9 C 7.1 g/m*3 9.9 C 0 km/h
517 29-05-2010 07:20:05 10.1 C 7.09 g/m*3 10.1 C 0 km/h
518 29-05-2010 07:32:05 10.2 C 7.14 g/m*3 10.2 C 0 km/h
519 29-05-2010 07:44:05 10.3 C 7.18 g/m*3 10.3 C 0 km/h
520 29-05-2010 07:56:05 10.4 C 7.23 g/m*3 10.4 C 0 km/h
521 29-05-2010 08:08:05 10.7 C 7.37 g/m*3 10.7 C 0 km/h
522 29-05-2010 08:20:05 11 C 7.31 g/m*3 11 C 0 km/h
523 29-05-2010 08:32:02 11.3 C 7.24 g/m*3 11.3 C 0 km/h
524 29-05-2010 08:44:02 11.7 C 7.11 g/m*3 11.7 C 0 km/h
525 29-05-2010 08:56:02 11.5 C 6.92 g/m*3 11.5 C 0 km/h
Sensor: Nr:Datum:Temp:Abs-Feuchte:Windchill:Wind:
Aussen-T/F 526 29-05-2010 09:08:02 11.8 C 7.16 g/m*3 11.8 C 0 km/h
527 29-05-2010 09:20:01 12.2 C 7.01 g/m*3 12.2 C 0 km/h
528 29-05-2010 09:32:02 12.7 C 7.01 g/m*3 12.7 C 0 km/h
529 29-05-2010 09:44:02 13.4 C 7.09 g/m*3 13.4 C 0 km/h
530 29-05-2010 09:56:02 14.2 C 6.96 g/m*3 14.2 C 0 km/h
531 29-05-2010 10:08:02 15 C 6.92 g/m*3 15 C 0 km/h
532 29-05-2010 10:20:02 16.1 C 7.26 g/m*3 16.1 C 0 km/h
533 29-05-2010 10:32:02 17.4 C 7.41 g/m*3 17.4 C 0 km/h
534 29-05-2010 10:44:02 17.9 C 7.02 g/m*3 17.9 C 0 km/h
535 29-05-2010 10:56:02 18.1 C 6.8 g/m*3 18.1 C 0 km/h
536 29-05-2010 11:08:02 18.4 C 6.92 g/m*3 18.4 C 0 km/h
537 29-05-2010 11:20:02 18.1 C 7.42 g/m*3 18.1 C 0 km/h
538 29-05-2010 11:32:02 18.4 C 7.55 g/m*3 18.4 C 0 km/h
539 29-05-2010 11:44:02 18.8 C 7.41 g/m*3 18.8 C 0 km/h
540 29-05-2010 11:56:01 19.6 C 7.26 g/m*3 19.6 C 0 km/h
541 29-05-2010 12:08:01 20.9 C 6.01 g/m*3 20.9 C 0 km/h
542 29-05-2010 12:20:01 21.8 C 5.76 g/m*3 21.8 C 0 km/h
543 29-05-2010 12:32:01 21.6 C 5.12 g/m*3 21.6 C 0 km/h
544 29-05-2010 12:44:01 21.2 C 5.19 g/m*3 21.2 C 0 km/h
545 29-05-2010 12:56:01 23.1 C 5.17 g/m*3 23.1 C 0 km/h
546 29-05-2010 13:08:01 24 C 4.79 g/m*3 24 C 0 km/h
547 29-05-2010 13:20:02 25.1 C 5.32 g/m*3 25.1 C 0 km/h
548 29-05-2010 13:32:01 25 C 4.6 g/m*3 25 C 0 km/h
549 29-05-2010 13:44:01 25.5 C 4.73 g/m*3 25.5 C 0 km/h
550 29-05-2010 13:56:02 24.6 C 4.73 g/m*3 24.6 C 0 km/h
Sensor: Nr:Datum:Temp:Abs-Feuchte:Windchill:Wind:
Aussen-T/F 551 29-05-2010 14:08:01 23.7 C 5.13 g/m*3 23.7 C 0 km/h
552 29-05-2010 14:20:02 23.8 C 5.38 g/m*3 23.8 C 0 km/h
553 29-05-2010 14:32:01 23.7 C 5.13 g/m*3 23.7 C 0 km/h
554 29-05-2010 14:44:01 23.3 C 5.23 g/m*3 23.3 C 0 km/h
555 29-05-2010 14:56:03 22.6 C 5.62 g/m*3 22.6 C 0 km/h
556 29-05-2010 15:08:02 23 C 5.55 g/m*3 23 C 0 km/h
557 29-05-2010 15:20:03 22.5 C 5.19 g/m*3 22.5 C 0 km/h
558 29-05-2010 15:32:02 22.7 C 6.06 g/m*3 22.7 C 0 km/h
559 29-05-2010 15:44:02 23.5 C 5.08 g/m*3 23.5 C 0 km/h
560 29-05-2010 15:56:02 23.4 C 4.84 g/m*3 23.4 C 0 km/h
561 29-05-2010 16:08:02 23.5 C 4.86 g/m*3 23.5 C 0 km/h
562 29-05-2010 16:20:02 24.5 C 5.15 g/m*3 24.5 C 0 km/h
563 29-05-2010 16:32:02 24.4 C 4.9 g/m*3 24.4 C 0 km/h
564 29-05-2010 16:44:02 24.5 C 5.15 g/m*3 24.5 C 0 km/h
565 29-05-2010 16:56:02 25.2 C 4.89 g/m*3 25.2 C 0 km/h
566 29-05-2010 17:08:02 25.1 C 5.79 g/m*3 25.1 C 0 km/h
567 29-05-2010 17:20:03 24.9 C 5.72 g/m*3 24.9 C 0 km/h
568 29-05-2010 17:32:02 23.5 C 5.92 g/m*3 23.5 C 0 km/h
569 29-05-2010 17:44:02 23.3 C 6.27 g/m*3 23.3 C 0 km/h
570 29-05-2010 17:56:02 23 C 5.96 g/m*3 23 C 0 km/h
571 29-05-2010 18:08:02 22.4 C 6.16 g/m*3 22.4 C 0 km/h
572 29-05-2010 18:20:02 22 C 6.21 g/m*3 22 C 0 km/h
573 29-05-2010 18:32:03 21.6 C 6.45 g/m*3 21.6 C 0 km/h
574 29-05-2010 18:44:03 21.3 C 5.78 g/m*3 21.3 C 0 km/h
575 29-05-2010 18:56:02 21.2 C 5.56 g/m*3 21.2 C 0 km/h
Sensor: Nr:Datum:Temp:Abs-Feuchte:Windchill:Wind:
Aussen-T/F 576 29-05-2010 19:08:01 21.2 C 5.56 g/m*3 21.2 C 0 km/h
577 29-05-2010 19:20:02 21 C 5.13 g/m*3 21 C 0 km/h
578 29-05-2010 19:32:02 20.4 C 5.31 g/m*3 20.4 C 0 km/h
579 29-05-2010 19:44:02 20.3 C 5.28 g/m*3 20.3 C 0 km/h
580 29-05-2010 19:56:02 20.4 C 5.48 g/m*3 20.4 C 0 km/h
581 29-05-2010 20:08:02 20 C 5.53 g/m*3 20 C 0 km/h
582 29-05-2010 20:20:02 19.6 C 5.74 g/m*3 19.6 C 0 km/h
583 29-05-2010 20:32:02 19.4 C 5.84 g/m*3 19.4 C 0 km/h
584 29-05-2010 20:44:02 18.9 C 6.32 g/m*3 18.9 C 0 km/h
585 29-05-2010 20:56:02 18.6 C 6.37 g/m*3 18.6 C 0 km/h
586 29-05-2010 21:08:02 18.4 C 5.98 g/m*3 18.4 C 0 km/h
587 29-05-2010 21:20:02 18.3 C 5.79 g/m*3 18.3 C 0 km/h
588 29-05-2010 21:32:02 17.6 C 6.9 g/m*3 17.6 C 0 km/h
589 29-05-2010 21:44:02 16.4 C 6.84 g/m*3 16.4 C 0 km/h
590 29-05-2010 21:56:02 14.6 C 8.13 g/m*3 14.6 C 0 km/h
591 29-05-2010 22:08:02 13.8 C 8.94 g/m*3 13.8 C 0 km/h
592 29-05-2010 22:20:01 13.3 C 9.01 g/m*3 13.3 C 0 km/h
593 29-05-2010 22:32:01 13.9 C 9.47 g/m*3 13.9 C 0 km/h
594 29-05-2010 22:44:01 14.3 C 8.97 g/m*3 14.3 C 0 km/h
595 29-05-2010 22:57:02 14.5 C 8.95 g/m*3 14.5 C 0 km/h
596 29-05-2010 23:09:02 14.5 C 8.71 g/m*3 14.5 C 0 km/h
597 29-05-2010 23:21:02 14.4 C 8.65 g/m*3 14.4 C 0 km/h
598 29-05-2010 23:33:02 13.7 C 8.76 g/m*3 13.7 C 0 km/h
599 29-05-2010 23:45:02 12.8 C 8.96 g/m*3 12.8 C 0 km/h
600 29-05-2010 23:57:02 13.2 C 9.42 g/m*3 13.2 C 0 km/h
Sensor: Nr:Datum:Temp:Abs-Feuchte:Windchill:Wind:
Aussen-T/F 601 30-05-2010 00:09:02 13.2 C 9.53 g/m*3 13.2 C 0 km/h
602 30-05-2010 00:21:02 13.2 C 9.53 g/m*3 13.2 C 0 km/h
603 30-05-2010 00:33:03 13.1 C 9.47 g/m*3 13.1 C 0 km/h
604 30-05-2010 00:45:03 13.3 C 9.47 g/m*3 13.3 C 0 km/h
605 30-05-2010 00:57:03 14.1 C 8.74 g/m*3 14.1 C 0 km/h
606 30-05-2010 01:09:03 13.7 C 9 g/m*3 13.7 C 0 km/h
607 30-05-2010 01:21:03 13.2 C 9.3 g/m*3 13.2 C 0 km/h
608 30-05-2010 01:33:03 13.1 C 9.59 g/m*3 13.1 C 0 km/h
609 30-05-2010 01:45:03 13 C 9.64 g/m*3 13 C 0 km/h
610 30-05-2010 01:57:03 13 C 9.87 g/m*3 13 C 0 km/h
611 30-05-2010 02:09:03 13 C 9.98 g/m*3 13 C 0 km/h
612 30-05-2010 02:21:03 12.8 C 9.97 g/m*3 12.8 C 0 km/h
613 30-05-2010 02:33:03 12.8 C 9.97 g/m*3 12.8 C 0 km/h
614 30-05-2010 02:45:03 12.9 C 10.14 g/m*3 12.9 C 0 km/h
615 30-05-2010 02:57:03 13 C 10.09 g/m*3 13 C 0 km/h
616 30-05-2010 03:09:03 12.9 C 10.26 g/m*3 12.9 C 0 km/h
617 30-05-2010 03:21:03 12.9 C 10.26 g/m*3 12.9 C 0 km/h
618 30-05-2010 03:33:03 12.9 C 10.26 g/m*3 12.9 C 0 km/h
619 30-05-2010 03:45:03 12.9 C 10.26 g/m*3 12.9 C 0 km/h
620 30-05-2010 03:57:03 12.9 C 10.37 g/m*3 12.9 C 0 km/h
621 30-05-2010 04:09:03 12.7 C 10.24 g/m*3 12.7 C 0 km/h
622 30-05-2010 04:21:03 12.7 C 10.24 g/m*3 12.7 C 0 km/h
623 30-05-2010 04:33:03 12.7 C 10.24 g/m*3 12.7 C 0 km/h
624 30-05-2010 04:45:04 12.9 C 10.37 g/m*3 12.9 C 0 km/h
625 30-05-2010 04:57:04 13 C 10.32 g/m*3 13 C 0 km/h
Sensor: Nr:Datum:Temp:Abs-Feuchte:Windchill:Wind:
Aussen-T/F 626 30-05-2010 05:09:04 12.9 C 10.26 g/m*3 12.9 C 0 km/h
627 30-05-2010 05:21:04 12.9 C 10.26 g/m*3 12.9 C 0 km/h
628 30-05-2010 05:33:04 12.8 C 10.19 g/m*3 12.8 C 0 km/h
629 30-05-2010 05:45:04 13.1 C 10.27 g/m*3 13.1 C 0 km/h
630 30-05-2010 05:57:04 13.1 C 10.27 g/m*3 13.1 C 0 km/h
631 30-05-2010 06:09:04 13.2 C 10.22 g/m*3 13.2 C 0 km/h
632 30-05-2010 06:21:04 13.3 C 10.28 g/m*3 13.3 C 0 km/h
633 30-05-2010 06:33:04 13.4 C 10.35 g/m*3 13.4 C 0 km/h
634 30-05-2010 06:45:04 13.5 C 10.29 g/m*3 13.5 C 0 km/h
635 30-05-2010 06:57:04 13.4 C 10.11 g/m*3 13.4 C 0 km/h
636 30-05-2010 07:09:04 13.4 C 10.23 g/m*3 13.4 C 0 km/h
637 30-05-2010 07:21:04 13.5 C 10.29 g/m*3 13.5 C 0 km/h
638 30-05-2010 07:33:04 13.7 C 10.42 g/m*3 13.7 C 0 km/h
639 30-05-2010 07:45:04 14.2 C 10.62 g/m*3 14.2 C 0 km/h
640 30-05-2010 07:57:04 14.2 C 10.62 g/m*3 14.2 C 0 km/h
641 30-05-2010 08:09:04 14.3 C 10.69 g/m*3 14.3 C 0 km/h
642 30-05-2010 08:21:04 14.1 C 9.95 g/m*3 14.1 C 0 km/h
643 30-05-2010 08:33:04 14.7 C 10.07 g/m*3 14.7 C 0 km/h
644 30-05-2010 08:45:05 15 C 9.75 g/m*3 15 C 0 km/h
645 30-05-2010 08:57:05 15.2 C 9.86 g/m*3 15.2 C 0 km/h
646 30-05-2010 09:09:02 15.6 C 9.84 g/m*3 15.6 C 0 km/h
647 30-05-2010 09:21:02 15.8 C 10.1 g/m*3 15.8 C 0 km/h
648 30-05-2010 09:33:02 15.8 C 9.96 g/m*3 15.8 C 0 km/h
649 30-05-2010 09:45:02 15.7 C 10.03 g/m*3 15.7 C 0 km/h
650 30-05-2010 09:57:02 15.2 C 10.12 g/m*3 15.2 C 0 km/h
Sensor: Nr:Datum:Temp:Abs-Feuchte:Windchill:Wind:
Aussen-T/F 651 30-05-2010 10:09:02 15 C 10.13 g/m*3 15 C 0 km/h
652 30-05-2010 10:21:02 14.5 C 9.95 g/m*3 14.5 C 0 km/h
653 30-05-2010 10:33:02 14.7 C 10.2 g/m*3 14.7 C 0 km/h
654 30-05-2010 10:45:02 15.3 C 10.45 g/m*3 15.3 C 0 km/h
655 30-05-2010 10:57:02 15.4 C 10.25 g/m*3 15.4 C 0 km/h
656 30-05-2010 11:09:02 17 C 9.84 g/m*3 17 C 0 km/h
657 30-05-2010 11:21:02 17.1 C 9.32 g/m*3 17.1 C 0 km/h
658 30-05-2010 11:33:02 18.6 C 9.71 g/m*3 18.6 C 0 km/h
659 30-05-2010 11:45:02 17.6 C 8.25 g/m*3 17.6 C 0 km/h
660 30-05-2010 11:57:02 16.9 C 8.63 g/m*3 16.9 C 0 km/h
661 30-05-2010 12:09:02 17 C 8.83 g/m*3 17 C 0 km/h
662 30-05-2010 12:21:02 17.5 C 7.9 g/m*3 17.5 C 0 km/h
663 30-05-2010 12:33:01 18.4 C 8.34 g/m*3 18.4 C 0 km/h
664 30-05-2010 12:45:02 18.4 C 7.86 g/m*3 18.4 C 0 km/h
665 30-05-2010 12:57:02 18.7 C 7.52 g/m*3 18.7 C 0 km/h
666 30-05-2010 13:09:01 18.7 C 7.2 g/m*3 18.7 C 0 km/h
667 30-05-2010 13:21:02 17.6 C 7.2 g/m*3 17.6 C 0 km/h
668 30-05-2010 13:33:01 18.3 C 7.51 g/m*3 18.3 C 0 km/h
669 30-05-2010 13:45:02 18.1 C 7.57 g/m*3 18.1 C 0 km/h
670 30-05-2010 13:57:02 17 C 8.25 g/m*3 17 C 0 km/h
671 30-05-2010 14:09:02 17.4 C 8.45 g/m*3 17.4 C 0 km/h
672 30-05-2010 14:21:02 17.4 C 8.15 g/m*3 17.4 C 0 km/h
673 30-05-2010 14:33:02 18.1 C 8.03 g/m*3 18.1 C 0 km/h
674 30-05-2010 14:45:02 18.6 C 8.28 g/m*3 18.6 C 0 km/h
675 30-05-2010 14:57:02 18.5 C 8.23 g/m*3 18.5 C 0 km/h
Sensor: Nr:Datum:Temp:Abs-Feuchte:Windchill:Wind:
Aussen-T/F 676 30-05-2010 15:09:01 19.2 C 8.08 g/m*3 19.2 C 0 km/h
677 30-05-2010 15:21:01 19.3 C 8.13 g/m*3 19.3 C 0 km/h
678 30-05-2010 15:33:02 19.5 C 7.89 g/m*3 19.5 C 0 km/h
679 30-05-2010 15:45:02 19.3 C 7.63 g/m*3 19.3 C 0 km/h
680 30-05-2010 15:57:02 18.6 C 6.84 g/m*3 18.6 C 0 km/h
681 30-05-2010 16:09:02 18.9 C 6.97 g/m*3 18.9 C 0 km/h
682 30-05-2010 16:21:02 19.8 C 7.17 g/m*3 19.8 C 0 km/h
683 30-05-2010 16:33:02 19.7 C 6.79 g/m*3 19.7 C 0 km/h
684 30-05-2010 16:45:02 19.3 C 6.97 g/m*3 19.3 C 0 km/h
685 30-05-2010 16:57:02 19.3 C 6.63 g/m*3 19.3 C 0 km/h
686 30-05-2010 17:09:02 18.9 C 6.64 g/m*3 18.9 C 0 km/h
687 30-05-2010 17:21:02 18.3 C 6.72 g/m*3 18.3 C 0 km/h
688 30-05-2010 17:33:02 15.6 C 8.51 g/m*3 15.6 C 0 km/h
689 30-05-2010 17:45:02 14.5 C 9.33 g/m*3 14.5 C 0 km/h
690 30-05-2010 17:57:02 14.2 C 9.52 g/m*3 14.2 C 0 km/h
691 30-05-2010 18:09:02 14.9 C 9.81 g/m*3 14.9 C 0 km/h
692 30-05-2010 18:21:02 15.1 C 9.42 g/m*3 15.1 C 0 km/h
693 30-05-2010 18:33:02 14.5 C 9.2 g/m*3 14.5 C 0 km/h
694 30-05-2010 18:45:02 13.9 C 9.71 g/m*3 13.9 C 0 km/h
695 30-05-2010 18:57:02 13.7 C 9.83 g/m*3 13.7 C 0 km/h
696 30-05-2010 19:09:02 13.5 C 9.47 g/m*3 13.5 C 0 km/h
697 30-05-2010 19:21:02 12.8 C 9.07 g/m*3 12.8 C 0 km/h
698 30-05-2010 19:33:02 12.7 C 9.35 g/m*3 12.7 C 0 km/h
699 30-05-2010 19:45:01 13.1 C 9.7 g/m*3 13.1 C 0 km/h
700 30-05-2010 19:57:01 13.7 C 9.95 g/m*3 13.7 C 0 km/h
Sensor: Nr:Datum:Temp:Abs-Feuchte:Windchill:Wind:
Aussen-T/F 701 30-05-2010 20:09:02 13.2 C 8.27 g/m*3 13.2 C 0 km/h
702 30-05-2010 20:21:02 12.7 C 7.24 g/m*3 12.7 C 0 km/h
703 30-05-2010 20:33:02 12.4 C 6.88 g/m*3 12.4 C 0 km/h
704 30-05-2010 20:45:02 12.1 C 6.97 g/m*3 12.1 C 0 km/h
705 30-05-2010 20:57:02 11.9 C 7.31 g/m*3 11.9 C 0 km/h
706 30-05-2010 21:09:02 11.8 C 6.84 g/m*3 11.8 C 0 km/h
707 30-05-2010 21:21:02 12 C 6.61 g/m*3 12 C 0 km/h
708 30-05-2010 21:33:01 11.8 C 6.84 g/m*3 11.8 C 0 km/h
709 30-05-2010 21:45:02 11.7 C 6.59 g/m*3 11.7 C 0 km/h
710 30-05-2010 21:57:02 11.4 C 6.26 g/m*3 11.4 C 0 km/h
711 30-05-2010 22:09:02 11.3 C 6.22 g/m*3 11.3 C 0 km/h
712 30-05-2010 22:22:03 11.2 C 6.28 g/m*3 11.2 C 0 km/h
713 30-05-2010 22:34:03 11.1 C 6.25 g/m*3 11.1 C 0 km/h
714 30-05-2010 22:46:03 11.1 C 6.04 g/m*3 11.1 C 0 km/h
715 30-05-2010 22:58:03 11 C 5.91 g/m*3 11 C 0 km/h
716 30-05-2010 23:10:03 11 C 5.81 g/m*3 11 C 0 km/h
717 30-05-2010 23:22:03 10.9 C 5.87 g/m*3 10.9 C 0 km/h
718 30-05-2010 23:34:03 10.7 C 5.7 g/m*3 10.7 C 0 km/h
719 30-05-2010 23:46:03 10.4 C 5.69 g/m*3 10.4 C 0 km/h
720 30-05-2010 23:58:03 10 C 5.73 g/m*3 10 C 0 km/h
721 31-05-2010 00:10:03 10.1 C 5.86 g/m*3 10.1 C 0 km/h
722 31-05-2010 00:22:03 9.8 C 5.85 g/m*3 9.8 C 0 km/h
723 31-05-2010 00:34:03 9.8 C 5.75 g/m*3 9.8 C 0 km/h
724 31-05-2010 00:46:04 9.8 C 5.85 g/m*3 9.8 C 0 km/h
725 31-05-2010 00:58:04 9.9 C 5.98 g/m*3 9.9 C 0 km/h
Sensor: Nr:Datum:Temp:Abs-Feuchte:Windchill:Wind:
Aussen-T/F 726 31-05-2010 01:10:04 10.1 C 5.77 g/m*3 10.1 C 0 km/h
727 31-05-2010 01:22:04 10 C 5.92 g/m*3 10 C 0 km/h
728 31-05-2010 01:34:04 9.8 C 6.22 g/m*3 9.8 C 0 km/h
729 31-05-2010 01:46:04 9.8 C 6.31 g/m*3 9.8 C 0 km/h
730 31-05-2010 01:58:04 9.5 C 6.64 g/m*3 9.5 C 0 km/h
731 31-05-2010 02:10:04 9.1 C 7.01 g/m*3 9.1 C 0 km/h
732 31-05-2010 02:22:04 8.9 C 7.36 g/m*3 8.9 C 0 km/h
733 31-05-2010 02:34:04 8.9 C 7.62 g/m*3 8.9 C 0 km/h
734 31-05-2010 02:46:04 8.9 C 7.71 g/m*3 8.9 C 0 km/h
735 31-05-2010 02:58:04 8.9 C 7.8 g/m*3 8.9 C 0 km/h
736 31-05-2010 03:10:04 8.7 C 7.7 g/m*3 8.7 C 0 km/h
737 31-05-2010 03:22:04 8.7 C 7.78 g/m*3 8.7 C 0 km/h
738 31-05-2010 03:34:04 8.6 C 7.73 g/m*3 8.6 C 0 km/h
739 31-05-2010 03:46:04 8.6 C 7.82 g/m*3 8.6 C 0 km/h
740 31-05-2010 03:58:04 8.5 C 7.68 g/m*3 8.5 C 0 km/h
741 31-05-2010 04:10:04 8.4 C 7.63 g/m*3 8.4 C 0 km/h
742 31-05-2010 04:22:04 8.5 C 7.77 g/m*3 8.5 C 0 km/h
743 31-05-2010 04:34:04 8.4 C 7.63 g/m*3 8.4 C 0 km/h
744 31-05-2010 04:46:05 8.6 C 7.73 g/m*3 8.6 C 0 km/h
745 31-05-2010 04:58:05 8.7 C 7.78 g/m*3 8.7 C 0 km/h
746 31-05-2010 05:10:05 8.6 C 7.73 g/m*3 8.6 C 0 km/h
747 31-05-2010 05:22:05 8.5 C 7.68 g/m*3 8.5 C 0 km/h
748 31-05-2010 05:34:05 8.5 C 7.68 g/m*3 8.5 C 0 km/h
749 31-05-2010 05:46:05 8.5 C 7.68 g/m*3 8.5 C 0 km/h
750 31-05-2010 05:58:05 8.6 C 7.73 g/m*3 8.6 C 0 km/h
Sensor: Nr:Datum:Temp:Abs-Feuchte:Windchill:Wind:
Aussen-T/F 751 31-05-2010 06:10:05 8.6 C 7.73 g/m*3 8.6 C 0 km/h
752 31-05-2010 06:22:05 8.7 C 7.87 g/m*3 8.7 C 0 km/h
753 31-05-2010 06:34:05 8.7 C 7.87 g/m*3 8.7 C 0 km/h
754 31-05-2010 06:46:02 8.7 C 7.96 g/m*3 8.7 C 0 km/h
755 31-05-2010 06:58:02 8.9 C 8.06 g/m*3 8.9 C 0 km/h
756 31-05-2010 07:10:02 8.9 C 8.06 g/m*3 8.9 C 0 km/h
757 31-05-2010 07:22:01 8.8 C 8.01 g/m*3 8.8 C 0 km/h
758 31-05-2010 07:34:02 8.9 C 8.15 g/m*3 8.9 C 0 km/h
759 31-05-2010 07:46:02 9 C 8.11 g/m*3 9 C 0 km/h
760 31-05-2010 07:58:02 9.1 C 8.16 g/m*3 9.1 C 0 km/h
761 31-05-2010 08:10:02 9.3 C 8.36 g/m*3 9.3 C 0 km/h
762 31-05-2010 08:22:02 9.7 C 8.57 g/m*3 9.7 C 0 km/h
763 31-05-2010 08:34:02 10 C 8.55 g/m*3 10 C 0 km/h
764 31-05-2010 08:46:02 10.1 C 8.51 g/m*3 10.1 C 0 km/h
765 31-05-2010 08:58:02 10.3 C 8.52 g/m*3 10.3 C 0 km/h
766 31-05-2010 09:10:02 10.7 C 8.55 g/m*3 10.7 C 0 km/h
767 31-05-2010 09:22:02 10.8 C 8.4 g/m*3 10.8 C 0 km/h
768 31-05-2010 09:34:02 10.8 C 8.3 g/m*3 10.8 C 0 km/h
769 31-05-2010 09:46:02 10.7 C 8.25 g/m*3 10.7 C 0 km/h
770 31-05-2010 09:58:02 11 C 8.41 g/m*3 11 C 0 km/h
771 31-05-2010 10:10:02 10.9 C 8.36 g/m*3 10.9 C 0 km/h
772 31-05-2010 10:22:02 10.9 C 8.26 g/m*3 10.9 C 0 km/h
773 31-05-2010 10:34:02 11 C 8.31 g/m*3 11 C 0 km/h
774 31-05-2010 10:46:02 11.3 C 8.47 g/m*3 11.3 C 0 km/h
775 31-05-2010 10:58:02 11.2 C 8.31 g/m*3 11.2 C 0 km/h
Sensor: Nr:Datum:Temp:Abs-Feuchte:Windchill:Wind:
Aussen-T/F 776 31-05-2010 11:10:02 11.5 C 8.47 g/m*3 11.5 C 0 km/h
777 31-05-2010 11:22:02 11.6 C 8.32 g/m*3 11.6 C 0 km/h
778 31-05-2010 11:34:02 11.8 C 8.42 g/m*3 11.8 C 0 km/h
779 31-05-2010 11:46:02 12.4 C 8.41 g/m*3 12.4 C 0 km/h
780 31-05-2010 11:58:02 12.5 C 8.14 g/m*3 12.5 C 0 km/h
781 31-05-2010 12:10:02 12.6 C 7.74 g/m*3 12.6 C 0 km/h
782 31-05-2010 12:22:02 14.2 C 8.06 g/m*3 14.2 C 0 km/h
783 31-05-2010 12:34:02 14.2 C 7.45 g/m*3 14.2 C 0 km/h
784 31-05-2010 12:46:02 14.2 C 7.57 g/m*3 14.2 C 0 km/h
785 31-05-2010 12:58:02 13.7 C 7.34 g/m*3 13.7 C 0 km/h
786 31-05-2010 13:10:02 14 C 7.24 g/m*3 14 C 0 km/h
787 31-05-2010 13:22:02 15.8 C 7.67 g/m*3 15.8 C 0 km/h
788 31-05-2010 13:34:01 14.7 C 7.3 g/m*3 14.7 C 0 km/h
789 31-05-2010 13:46:02 13.6 C 7.18 g/m*3 13.6 C 0 km/h
790 31-05-2010 13:58:02 13.5 C 7.25 g/m*3 13.5 C 0 km/h
791 31-05-2010 14:10:01 14 C 7.36 g/m*3 14 C 0 km/h
792 31-05-2010 14:22:02 14.7 C 7.43 g/m*3 14.7 C 0 km/h
793 31-05-2010 14:34:01 15.4 C 7.23 g/m*3 15.4 C 0 km/h
794 31-05-2010 14:46:01 15.7 C 7.36 g/m*3 15.7 C 0 km/h
795 31-05-2010 14:58:01 15 C 7.18 g/m*3 15 C 0 km/h
796 31-05-2010 15:10:01 15 C 7.31 g/m*3 15 C 0 km/h
797 31-05-2010 15:22:02 14.8 C 7.35 g/m*3 14.8 C 0 km/h
798 31-05-2010 15:34:01 14.9 C 7.52 g/m*3 14.9 C 0 km/h
799 31-05-2010 15:46:03 14.7 C 7.81 g/m*3 14.7 C 0 km/h
800 31-05-2010 15:58:03 14.4 C 7.79 g/m*3 14.4 C 0 km/h
Sensor: Nr:Datum:Temp:Abs-Feuchte:Windchill:Wind:
Aussen-T/F 801 31-05-2010 16:10:02 14.2 C 8.06 g/m*3 14.2 C 0 km/h
802 31-05-2010 16:22:02 13.8 C 7.98 g/m*3 13.8 C 0 km/h
803 31-05-2010 16:34:02 13.8 C 8.1 g/m*3 13.8 C 0 km/h
804 31-05-2010 16:46:02 13.9 C 8.27 g/m*3 13.9 C 0 km/h
805 31-05-2010 16:58:02 14.1 C 8.01 g/m*3 14.1 C 0 km/h
806 31-05-2010 17:10:02 14.3 C 7.86 g/m*3 14.3 C 0 km/h
807 31-05-2010 17:22:02 14.4 C 7.54 g/m*3 14.4 C 0 km/h
808 31-05-2010 17:34:01 14.4 C 7.79 g/m*3 14.4 C 0 km/h
809 31-05-2010 17:46:02 14.3 C 7.99 g/m*3 14.3 C 0 km/h
810 31-05-2010 17:58:02 13.5 C 8.42 g/m*3 13.5 C 0 km/h
811 31-05-2010 18:10:01 13.2 C 8.73 g/m*3 13.2 C 0 km/h
812 31-05-2010 18:22:02 12.7 C 8.79 g/m*3 12.7 C 0 km/h
813 31-05-2010 18:34:01 12.9 C 8.68 g/m*3 12.9 C 0 km/h
814 31-05-2010 18:46:02 13.4 C 8.6 g/m*3 13.4 C 0 km/h
815 31-05-2010 18:58:02 13.3 C 8.66 g/m*3 13.3 C 0 km/h
816 31-05-2010 19:10:02 13 C 8.96 g/m*3 13 C 0 km/h
817 31-05-2010 19:22:02 12.8 C 9.18 g/m*3 12.8 C 0 km/h
818 31-05-2010 19:34:02 12.7 C 9.35 g/m*3 12.7 C 0 km/h
819 31-05-2010 19:46:02 12.6 C 9.4 g/m*3 12.6 C 0 km/h
820 31-05-2010 19:58:02 12.4 C 9.29 g/m*3 12.4 C 0 km/h
821 31-05-2010 20:10:01 12.4 C 9.4 g/m*3 12.4 C 0 km/h
822 31-05-2010 20:22:01 12.5 C 9.46 g/m*3 12.5 C 0 km/h
823 31-05-2010 20:34:02 12.5 C 9.57 g/m*3 12.5 C 0 km/h
824 31-05-2010 20:46:02 12.5 C 9.57 g/m*3 12.5 C 0 km/h
825 31-05-2010 20:58:02 12.5 C 9.57 g/m*3 12.5 C 0 km/h
Sensor: Nr:Datum:Temp:Abs-Feuchte:Windchill:Wind:
Aussen-T/F 826 31-05-2010 21:10:03 12.5 C 9.57 g/m*3 12.5 C 0 km/h
827 31-05-2010 21:22:02 12.6 C 9.62 g/m*3 12.6 C 0 km/h
828 31-05-2010 21:34:02 12.5 C 9.46 g/m*3 12.5 C 0 km/h
829 31-05-2010 21:46:02 12.5 C 9.57 g/m*3 12.5 C 0 km/h
830 31-05-2010 21:58:02 12.4 C 9.51 g/m*3 12.4 C 0 km/h
831 31-05-2010 22:10:01 12.4 C 9.62 g/m*3 12.4 C 0 km/h
832 31-05-2010 22:23:01 12.5 C 9.68 g/m*3 12.5 C 0 km/h
833 31-05-2010 22:35:01 12.5 C 9.78 g/m*3 12.5 C 0 km/h
834 31-05-2010 22:47:01 12.6 C 9.85 g/m*3 12.6 C 0 km/h
835 31-05-2010 22:59:01 12.7 C 9.91 g/m*3 12.7 C 0 km/h
836 31-05-2010 23:11:01 12.7 C 9.8 g/m*3 12.7 C 0 km/h
837 31-05-2010 23:23:01 12.7 C 9.8 g/m*3 12.7 C 0 km/h
838 31-05-2010 23:35:01 12.7 C 9.8 g/m*3 12.7 C 0 km/h
839 31-05-2010 23:47:02 12.6 C 9.74 g/m*3 12.6 C 0 km/h
840 31-05-2010 23:59:02 12.4 C 9.62 g/m*3 12.4 C 0 km/h
841 01-06-2010 00:11:02 11.9 C 9.43 g/m*3 11.9 C 0 km/h
842 01-06-2010 00:23:02 11.8 C 9.47 g/m*3 11.8 C 0 km/h
843 01-06-2010 00:35:02 11.5 C 9.3 g/m*3 11.5 C 0 km/h
844 01-06-2010 00:47:02 11.7 C 9.41 g/m*3 11.7 C 0 km/h
845 01-06-2010 00:59:02 11.6 C 9.46 g/m*3 11.6 C 0 km/h
846 01-06-2010 01:11:02 11.5 C 9.5 g/m*3 11.5 C 0 km/h
847 01-06-2010 01:23:02 11.6 C 9.56 g/m*3 11.6 C 0 km/h
848 01-06-2010 01:35:02 11.7 C 9.62 g/m*3 11.7 C 0 km/h
849 01-06-2010 01:47:02 11.2 C 9.33 g/m*3 11.2 C 0 km/h
850 01-06-2010 01:59:02 11.2 C 9.33 g/m*3 11.2 C 0 km/h
Sensor: Nr:Datum:Temp:Abs-Feuchte:Windchill:Wind:
Aussen-T/F 851 01-06-2010 02:11:02 11 C 9.21 g/m*3 11 C 0 km/h
852 01-06-2010 02:23:02 10.9 C 9.25 g/m*3 10.9 C 0 km/h
853 01-06-2010 02:35:02 10.8 C 9.19 g/m*3 10.8 C 0 km/h
854 01-06-2010 02:47:02 10.8 C 9.19 g/m*3 10.8 C 0 km/h
855 01-06-2010 02:59:02 11.1 C 9.37 g/m*3 11.1 C 0 km/h
856 01-06-2010 03:11:02 11.3 C 9.49 g/m*3 11.3 C 0 km/h
857 01-06-2010 03:23:02 11.4 C 9.65 g/m*3 11.4 C 0 km/h
858 01-06-2010 03:35:02 11.4 C 9.65 g/m*3 11.4 C 0 km/h
859 01-06-2010 03:47:02 11.4 C 9.65 g/m*3 11.4 C 0 km/h
860 01-06-2010 03:59:03 11.4 C 9.65 g/m*3 11.4 C 0 km/h
861 01-06-2010 04:11:03 11.8 C 9.79 g/m*3 11.8 C 0 km/h
862 01-06-2010 04:23:03 11.2 C 9.43 g/m*3 11.2 C 0 km/h
863 01-06-2010 04:35:03 11 C 9.31 g/m*3 11 C 0 km/h
864 01-06-2010 04:47:03 10.5 C 9.02 g/m*3 10.5 C 0 km/h
865 01-06-2010 04:59:03 10.8 C 9.19 g/m*3 10.8 C 0 km/h
866 01-06-2010 05:11:03 11 C 9.31 g/m*3 11 C 0 km/h
867 01-06-2010 05:23:03 11.2 C 9.53 g/m*3 11.2 C 0 km/h
868 01-06-2010 05:35:03 11.2 C 9.43 g/m*3 11.2 C 0 km/h
869 01-06-2010 05:47:03 11.3 C 9.49 g/m*3 11.3 C 0 km/h
870 01-06-2010 05:59:03 11.2 C 9.43 g/m*3 11.2 C 0 km/h
871 01-06-2010 06:11:03 11.3 C 9.49 g/m*3 11.3 C 0 km/h
872 01-06-2010 06:23:03 11.3 C 9.38 g/m*3 11.3 C 0 km/h
873 01-06-2010 06:35:03 11.2 C 9.33 g/m*3 11.2 C 0 km/h
874 01-06-2010 06:47:03 11.1 C 9.17 g/m*3 11.1 C 0 km/h
875 01-06-2010 06:59:03 11.2 C 9.12 g/m*3 11.2 C 0 km/h
Sensor: Nr:Datum:Temp:Abs-Feuchte:Windchill:Wind:
Aussen-T/F 876 01-06-2010 07:11:02 11.4 C 9.24 g/m*3 11.4 C 0 km/h
877 01-06-2010 07:23:01 11.7 C 9.31 g/m*3 11.7 C 0 km/h
878 01-06-2010 07:35:02 12 C 9.38 g/m*3 12 C 0 km/h
879 01-06-2010 07:47:02 12.4 C 9.4 g/m*3 12.4 C 0 km/h
880 01-06-2010 07:59:02 12.7 C 9.35 g/m*3 12.7 C 0 km/h
881 01-06-2010 08:11:02 12.9 C 9.35 g/m*3 12.9 C 0 km/h
882 01-06-2010 08:23:01 13.6 C 9.53 g/m*3 13.6 C 0 km/h
883 01-06-2010 08:35:02 13.9 C 9.35 g/m*3 13.9 C 0 km/h
884 01-06-2010 08:47:01 14.2 C 9.16 g/m*3 14.2 C 0 km/h
885 01-06-2010 08:59:01 13.8 C 9.17 g/m*3 13.8 C 0 km/h
886 01-06-2010 09:11:02 14.3 C 9.09 g/m*3 14.3 C 0 km/h
887 01-06-2010 09:23:02 14.7 C 9.07 g/m*3 14.7 C 0 km/h
888 01-06-2010 09:35:02 15.2 C 9.22 g/m*3 15.2 C 0 km/h
889 01-06-2010 09:47:01 15 C 8.59 g/m*3 15 C 0 km/h
890 01-06-2010 09:59:01 15.8 C 8.62 g/m*3 15.8 C 0 km/h
891 01-06-2010 10:11:02 15.3 C 8.36 g/m*3 15.3 C 0 km/h
892 01-06-2010 10:23:02 14.5 C 8.58 g/m*3 14.5 C 0 km/h
893 01-06-2010 10:35:01 14.5 C 8.83 g/m*3 14.5 C 0 km/h
894 01-06-2010 10:47:02 15.7 C 8.83 g/m*3 15.7 C 0 km/h
895 01-06-2010 10:59:02 15.4 C 8.54 g/m*3 15.4 C 0 km/h
896 01-06-2010 11:11:01 16.1 C 8.64 g/m*3 16.1 C 0 km/h
897 01-06-2010 11:23:02 17.2 C 8.49 g/m*3 17.2 C 0 km/h
898 01-06-2010 11:35:01 16.7 C 7.96 g/m*3 16.7 C 0 km/h
899 01-06-2010 11:47:02 17.6 C 8.1 g/m*3 17.6 C 0 km/h
900 01-06-2010 11:59:02 17.8 C 7.59 g/m*3 17.8 C 0 km/h
Sensor: Nr:Datum:Temp:Abs-Feuchte:Windchill:Wind:
Aussen-T/F 901 01-06-2010 12:11:02 18.8 C 7.89 g/m*3 18.8 C 0 km/h
902 01-06-2010 12:23:02 18.9 C 7.45 g/m*3 18.9 C 0 km/h
903 01-06-2010 12:35:03 19.3 C 6.63 g/m*3 19.3 C 0 km/h
904 01-06-2010 12:47:02 20.6 C 7.34 g/m*3 20.6 C 0 km/h
905 01-06-2010 12:59:03 19.5 C 6.71 g/m*3 19.5 C 0 km/h
906 01-06-2010 13:11:01 19.7 C 6.79 g/m*3 19.7 C 0 km/h
907 01-06-2010 13:23:02 20.9 C 6.92 g/m*3 20.9 C 0 km/h
908 01-06-2010 13:35:02 21.6 C 6.83 g/m*3 21.6 C 0 km/h
909 01-06-2010 13:47:02 20.4 C 6.19 g/m*3 20.4 C 0 km/h
910 01-06-2010 13:59:02 20.3 C 6.68 g/m*3 20.3 C 0 km/h
911 01-06-2010 14:11:03 19.8 C 6.66 g/m*3 19.8 C 0 km/h
912 01-06-2010 14:23:02 20.5 C 7.12 g/m*3 20.5 C 0 km/h
913 01-06-2010 14:35:02 21 C 6.05 g/m*3 21 C 0 km/h
914 01-06-2010 14:47:01 22 C 6.02 g/m*3 22 C 0 km/h
915 01-06-2010 14:59:01 21.6 C 5.88 g/m*3 21.6 C 0 km/h
916 01-06-2010 15:11:02 20.8 C 5.61 g/m*3 20.8 C 0 km/h
917 01-06-2010 15:23:01 21.2 C 5.37 g/m*3 21.2 C 0 km/h
918 01-06-2010 15:35:01 22.2 C 5.1 g/m*3 22.2 C 0 km/h
919 01-06-2010 15:47:01 23.8 C 5.38 g/m*3 23.8 C 0 km/h
920 01-06-2010 15:59:01 22.7 C 5.25 g/m*3 22.7 C 0 km/h
921 01-06-2010 16:11:02 22.3 C 4.54 g/m*3 22.3 C 0 km/h
922 01-06-2010 16:23:01 22.7 C 5.05 g/m*3 22.7 C 0 km/h
923 01-06-2010 16:35:01 22.7 C 5.05 g/m*3 22.7 C 0 km/h
924 01-06-2010 16:47:01 22.7 C 5.05 g/m*3 22.7 C 0 km/h
925 01-06-2010 16:59:01 23.6 C 5.1 g/m*3 23.6 C 0 km/h
Sensor: Nr:Datum:Temp:Abs-Feuchte:Windchill:Wind:
Aussen-T/F 926 01-06-2010 17:11:02 23.3 C 5.23 g/m*3 23.3 C 0 km/h
927 01-06-2010 17:23:02 22.8 C 5.89 g/m*3 22.8 C 0 km/h
928 01-06-2010 17:35:01 22.7 C 5.25 g/m*3 22.7 C 0 km/h
929 01-06-2010 17:47:01 22.4 C 5.16 g/m*3 22.4 C 0 km/h
930 01-06-2010 17:59:01 21.3 C 4.85 g/m*3 21.3 C 0 km/h
931 01-06-2010 18:11:01 20.7 C 4.68 g/m*3 20.7 C 0 km/h
932 01-06-2010 18:23:02 20.4 C 4.95 g/m*3 20.4 C 0 km/h
933 01-06-2010 18:35:01 20.7 C 4.86 g/m*3 20.7 C 0 km/h
934 01-06-2010 18:47:03 20.6 C 5.37 g/m*3 20.6 C 0 km/h
935 01-06-2010 18:59:03 20.4 C 5.66 g/m*3 20.4 C 0 km/h
936 01-06-2010 19:11:02 20.1 C 5.74 g/m*3 20.1 C 0 km/h
937 01-06-2010 19:23:02 19.7 C 6.11 g/m*3 19.7 C 0 km/h
938 01-06-2010 19:35:02 19.5 C 6.38 g/m*3 19.5 C 0 km/h
939 01-06-2010 19:47:02 19.3 C 6.14 g/m*3 19.3 C 0 km/h
940 01-06-2010 19:59:02 19.1 C 6.07 g/m*3 19.1 C 0 km/h
941 01-06-2010 20:11:02 18.9 C 6.8 g/m*3 18.9 C 0 km/h
942 01-06-2010 20:23:02 18.7 C 7.04 g/m*3 18.7 C 0 km/h
943 01-06-2010 20:35:02 18.2 C 6.99 g/m*3 18.2 C 0 km/h
944 01-06-2010 20:47:02 17.8 C 7.29 g/m*3 17.8 C 0 km/h
945 01-06-2010 20:59:03 17.4 C 7.11 g/m*3 17.4 C 0 km/h
946 01-06-2010 21:11:01 16.8 C 7.15 g/m*3 16.8 C 0 km/h
947 01-06-2010 21:23:01 16.6 C 7.2 g/m*3 16.6 C 0 km/h
948 01-06-2010 21:35:02 16.1 C 7.13 g/m*3 16.1 C 0 km/h
949 01-06-2010 21:47:02 15.8 C 7 g/m*3 15.8 C 0 km/h
950 01-06-2010 21:59:02 15.5 C 7.01 g/m*3 15.5 C 0 km/h
Sensor: Nr:Datum:Temp:Abs-Feuchte:Windchill:Wind:
Aussen-T/F 951 01-06-2010 22:11:02 15.3 C 7.18 g/m*3 15.3 C 0 km/h
952 01-06-2010 22:23:02 15.1 C 7.22 g/m*3 15.1 C 0 km/h
953 01-06-2010 22:35:02 15 C 7.31 g/m*3 15 C 0 km/h
954 01-06-2010 22:47:02 14.9 C 7.52 g/m*3 14.9 C 0 km/h
955 01-06-2010 22:59:02 14.9 C 7.65 g/m*3 14.9 C 0 km/h
956 01-06-2010 23:11:02 14.8 C 7.73 g/m*3 14.8 C 0 km/h
957 01-06-2010 23:23:02 14.8 C 7.6 g/m*3 14.8 C 0 km/h
958 01-06-2010 23:35:02 14.8 C 7.73 g/m*3 14.8 C 0 km/h
959 01-06-2010 23:47:01 14.7 C 7.81 g/m*3 14.7 C 0 km/h
960 01-06-2010 23:59:01 14.6 C 7.88 g/m*3 14.6 C 0 km/h
961 02-06-2010 00:11:02 14.5 C 8.08 g/m*3 14.5 C 0 km/h
962 02-06-2010 00:23:01 14.4 C 8.28 g/m*3 14.4 C 0 km/h
963 02-06-2010 00:35:01 14.4 C 8.41 g/m*3 14.4 C 0 km/h
964 02-06-2010 00:47:01 14.5 C 8.58 g/m*3 14.5 C 0 km/h
965 02-06-2010 00:59:01 14.4 C 8.41 g/m*3 14.4 C 0 km/h
966 02-06-2010 01:11:02 14.4 C 8.28 g/m*3 14.4 C 0 km/h
967 02-06-2010 01:23:01 14.3 C 8.35 g/m*3 14.3 C 0 km/h
968 02-06-2010 01:35:02 14.2 C 8.43 g/m*3 14.2 C 0 km/h
969 02-06-2010 01:47:01 14.1 C 8.37 g/m*3 14.1 C 0 km/h
970 02-06-2010 01:59:01 14.1 C 8.5 g/m*3 14.1 C 0 km/h
971 02-06-2010 02:11:02 13.8 C 8.58 g/m*3 13.8 C 0 km/h
972 02-06-2010 02:23:02 13.7 C 8.64 g/m*3 13.7 C 0 km/h
973 02-06-2010 02:35:01 13.6 C 8.71 g/m*3 13.6 C 0 km/h
974 02-06-2010 02:47:01 13.4 C 8.72 g/m*3 13.4 C 0 km/h
975 02-06-2010 02:59:01 13.4 C 8.83 g/m*3 13.4 C 0 km/h
Sensor: Nr:Datum:Temp:Abs-Feuchte:Windchill:Wind:
Aussen-T/F 976 02-06-2010 03:11:01 13.3 C 8.78 g/m*3 13.3 C 0 km/h
977 02-06-2010 03:23:01 13.3 C 8.78 g/m*3 13.3 C 0 km/h
978 02-06-2010 03:35:01 13.4 C 8.83 g/m*3 13.4 C 0 km/h
979 02-06-2010 03:47:01 13.3 C 8.78 g/m*3 13.3 C 0 km/h
980 02-06-2010 03:59:01 13.4 C 8.83 g/m*3 13.4 C 0 km/h
981 02-06-2010 04:11:02 13.2 C 8.5 g/m*3 13.2 C 0 km/h
982 02-06-2010 04:23:01 13.3 C 8.32 g/m*3 13.3 C 0 km/h
983 02-06-2010 04:35:01 13.4 C 8.37 g/m*3 13.4 C 0 km/h
984 02-06-2010 04:47:01 13.5 C 8.42 g/m*3 13.5 C 0 km/h
985 02-06-2010 04:59:01 13.4 C 8.37 g/m*3 13.4 C 0 km/h
986 02-06-2010 05:11:01 13.4 C 8.37 g/m*3 13.4 C 0 km/h
987 02-06-2010 05:23:02 13.3 C 8.32 g/m*3 13.3 C 0 km/h
988 02-06-2010 05:35:01 13.4 C 8.49 g/m*3 13.4 C 0 km/h
989 02-06-2010 05:47:01 13.2 C 8.38 g/m*3 13.2 C 0 km/h
990 02-06-2010 05:59:01 13.2 C 8.38 g/m*3 13.2 C 0 km/h
991 02-06-2010 06:11:01 13.2 C 8.38 g/m*3 13.2 C 0 km/h
992 02-06-2010 06:23:02 13.2 C 8.5 g/m*3 13.2 C 0 km/h
993 02-06-2010 06:35:01 13.2 C 8.61 g/m*3 13.2 C 0 km/h
994 02-06-2010 06:47:02 13.4 C 8.72 g/m*3 13.4 C 0 km/h
995 02-06-2010 06:59:02 13.4 C 8.6 g/m*3 13.4 C 0 km/h
996 02-06-2010 07:11:01 13.6 C 8.59 g/m*3 13.6 C 0 km/h
997 02-06-2010 07:23:01 13.7 C 8.76 g/m*3 13.7 C 0 km/h
998 02-06-2010 07:35:01 13.8 C 8.58 g/m*3 13.8 C 0 km/h
999 02-06-2010 07:47:02 13.9 C 8.51 g/m*3 13.9 C 0 km/h
1000 02-06-2010 07:59:02 14.2 C 8.43 g/m*3 14.2 C 0 km/h
Sensor: Nr:Datum:Temp:Abs-Feuchte:Windchill:Wind:
Aussen-T/F 1001 02-06-2010 08:11:01 14.5 C 8.21 g/m*3 14.5 C 0 km/h
1002 02-06-2010 08:23:01 14.5 C 8.21 g/m*3 14.5 C 0 km/h
1003 02-06-2010 08:35:01 15.6 C 8.38 g/m*3 15.6 C 0 km/h
1004 02-06-2010 08:47:01 15.7 C 8.03 g/m*3 15.7 C 0 km/h
1005 02-06-2010 08:59:02 15.2 C 7.92 g/m*3 15.2 C 0 km/h
1006 02-06-2010 09:11:01 14.6 C 7.63 g/m*3 14.6 C 0 km/h
1007 02-06-2010 09:23:01 14.6 C 7.88 g/m*3 14.6 C 0 km/h
1008 02-06-2010 09:35:02 14.8 C 7.85 g/m*3 14.8 C 0 km/h
1009 02-06-2010 09:47:01 15.2 C 7.66 g/m*3 15.2 C 0 km/h
1010 02-06-2010 09:59:01 16.2 C 7.58 g/m*3 16.2 C 0 km/h
1011 02-06-2010 10:11:01 17 C 6.8 g/m*3 17 C 0 km/h
1012 02-06-2010 10:23:01 16.9 C 6.18 g/m*3 16.9 C 0 km/h
1013 02-06-2010 10:35:02 17.6 C 6.45 g/m*3 17.6 C 0 km/h
1014 02-06-2010 10:47:01 17.9 C 6.57 g/m*3 17.9 C 0 km/h
1015 02-06-2010 10:59:01 18.4 C 6.45 g/m*3 18.4 C 0 km/h
1016 02-06-2010 11:11:02 18.1 C 6.33 g/m*3 18.1 C 0 km/h
1017 02-06-2010 11:23:01 18.5 C 6.33 g/m*3 18.5 C 0 km/h
1018 02-06-2010 11:35:01 19.5 C 5.87 g/m*3 19.5 C 0 km/h
1019 02-06-2010 11:47:01 20.1 C 5.56 g/m*3 20.1 C 0 km/h
1020 02-06-2010 11:59:01 20.3 C 5.8 g/m*3 20.3 C 0 km/h
1021 02-06-2010 12:11:02 20.7 C 5.58 g/m*3 20.7 C 0 km/h
1022 02-06-2010 12:23:01 21.9 C 5.21 g/m*3 21.9 C 0 km/h
1023 02-06-2010 12:35:01 22.5 C 5.19 g/m*3 22.5 C 0 km/h
1024 02-06-2010 12:47:01 21.4 C 5.25 g/m*3 21.4 C 0 km/h
1025 02-06-2010 12:59:01 22.8 C 5.28 g/m*3 22.8 C 0 km/h
Sensor: Nr:Datum:Temp:Abs-Feuchte:Windchill:Wind:
Aussen-T/F 1026 02-06-2010 13:11:01 22.9 C 5.11 g/m*3 22.9 C 0 km/h
1027 02-06-2010 13:23:01 23.5 C 4.86 g/m*3 23.5 C 0 km/h
1028 02-06-2010 13:35:01 24.3 C 4.43 g/m*3 24.3 C 0 km/h
1029 02-06-2010 13:47:01 24.3 C 4.43 g/m*3 24.3 C 0 km/h
1030 02-06-2010 13:59:01 23.4 C 4.21 g/m*3 23.4 C 0 km/h
1031 02-06-2010 14:11:01 23.5 C 4.44 g/m*3 23.5 C 0 km/h
1032 02-06-2010 14:23:02 22.8 C 4.67 g/m*3 22.8 C 0 km/h
1033 02-06-2010 14:35:01 23.5 C 4.23 g/m*3 23.5 C 0 km/h
1034 02-06-2010 14:47:02 23.4 C 4.21 g/m*3 23.4 C 0 km/h
1035 02-06-2010 14:59:02 24.3 C 4.65 g/m*3 24.3 C 0 km/h
1036 02-06-2010 15:11:01 22.5 C 4.79 g/m*3 22.5 C 0 km/h
1037 02-06-2010 15:23:02 22.8 C 5.49 g/m*3 22.8 C 0 km/h
1038 02-06-2010 15:35:01 22.2 C 5.89 g/m*3 22.2 C 0 km/h
1039 02-06-2010 15:47:02 23.2 C 5.82 g/m*3 23.2 C 0 km/h
1040 02-06-2010 15:59:02 22.2 C 5.89 g/m*3 22.2 C 0 km/h
1041 02-06-2010 16:11:01 21.7 C 6.49 g/m*3 21.7 C 0 km/h
1042 02-06-2010 16:23:02 21.5 C 6.6 g/m*3 21.5 C 0 km/h
1043 02-06-2010 16:35:01 21.1 C 6.63 g/m*3 21.1 C 0 km/h
1044 02-06-2010 16:47:02 20.7 C 7.02 g/m*3 20.7 C 0 km/h
1045 02-06-2010 16:59:02 20.4 C 6.9 g/m*3 20.4 C 0 km/h
1046 02-06-2010 17:11:01 20.8 C 7.06 g/m*3 20.8 C 0 km/h
1047 02-06-2010 17:23:01 20.9 C 7.1 g/m*3 20.9 C 0 km/h
1048 02-06-2010 17:35:02 20.3 C 7.21 g/m*3 20.3 C 0 km/h
1049 02-06-2010 17:47:02 20.1 C 6.95 g/m*3 20.1 C 0 km/h
1050 02-06-2010 17:59:02 20.1 C 7.13 g/m*3 20.1 C 0 km/h
Sensor: Nr:Datum:Temp:Abs-Feuchte:Windchill:Wind:
Aussen-T/F 1051 02-06-2010 18:11:01 20.3 C 7.03 g/m*3 20.3 C 0 km/h
1052 02-06-2010 18:23:01 20.4 C 7.43 g/m*3 20.4 C 0 km/h
1053 02-06-2010 18:35:02 22 C 6.99 g/m*3 22 C 0 km/h
1054 02-06-2010 18:47:01 23.2 C 6.86 g/m*3 23.2 C 0 km/h
1055 02-06-2010 18:59:02 21.4 C 6.94 g/m*3 21.4 C 0 km/h
1056 02-06-2010 19:11:01 21 C 6.96 g/m*3 21 C 0 km/h
1057 02-06-2010 19:23:01 20.3 C 7.39 g/m*3 20.3 C 0 km/h
1058 02-06-2010 19:35:02 20.7 C 7.38 g/m*3 20.7 C 0 km/h
1059 02-06-2010 19:47:01 20.6 C 7.52 g/m*3 20.6 C 0 km/h
1060 02-06-2010 19:59:01 20.8 C 7.6 g/m*3 20.8 C 0 km/h
1061 02-06-2010 20:11:02 19.9 C 7.56 g/m*3 19.9 C 0 km/h
1062 02-06-2010 20:23:01 19.6 C 7.6 g/m*3 19.6 C 0 km/h
1063 02-06-2010 20:35:02 20.3 C 7.56 g/m*3 20.3 C 0 km/h
1064 02-06-2010 20:47:01 19.7 C 7.64 g/m*3 19.7 C 0 km/h
1065 02-06-2010 20:59:01 19.4 C 7.67 g/m*3 19.4 C 0 km/h
1066 02-06-2010 21:11:02 18.9 C 7.78 g/m*3 18.9 C 0 km/h
1067 02-06-2010 21:23:02 18.5 C 7.91 g/m*3 18.5 C 0 km/h
1068 02-06-2010 21:35:01 18.1 C 7.88 g/m*3 18.1 C 0 km/h
1069 02-06-2010 21:47:01 18.1 C 8.03 g/m*3 18.1 C 0 km/h
1070 02-06-2010 21:59:01 18.1 C 8.19 g/m*3 18.1 C 0 km/h
1071 02-06-2010 22:12:05 18.1 C 8.19 g/m*3 18.1 C 0 km/h
1072 02-06-2010 22:24:05 18 C 8.29 g/m*3 18 C 0 km/h
1073 02-06-2010 22:36:05 17.6 C 8.4 g/m*3 17.6 C 0 km/h
1074 02-06-2010 22:48:05 17.2 C 8.2 g/m*3 17.2 C 0 km/h
1075 02-06-2010 23:00:05 16.8 C 8.44 g/m*3 16.8 C 0 km/h
Sensor: Nr:Datum:Temp:Abs-Feuchte:Windchill:Wind:
Aussen-T/F 1076 02-06-2010 23:12:06 16.5 C 8.57 g/m*3 16.5 C 0 km/h
1077 02-06-2010 23:24:06 16.4 C 8.37 g/m*3 16.4 C 0 km/h
1078 02-06-2010 23:36:06 16.3 C 8.32 g/m*3 16.3 C 0 km/h
1079 02-06-2010 23:48:06 16.2 C 8.27 g/m*3 16.2 C 0 km/h
1080 03-06-2010 00:00:06 16.1 C 8.36 g/m*3 16.1 C 0 km/h
1081 03-06-2010 00:12:06 15.9 C 8.53 g/m*3 15.9 C 0 km/h
1082 03-06-2010 00:24:06 15.6 C 8.51 g/m*3 15.6 C 0 km/h
1083 03-06-2010 00:36:06 15.4 C 8.54 g/m*3 15.4 C 0 km/h
1084 03-06-2010 00:48:06 15.1 C 8.51 g/m*3 15.1 C 0 km/h
1085 03-06-2010 01:00:06 15 C 8.59 g/m*3 15 C 0 km/h
1086 03-06-2010 01:12:06 15 C 8.72 g/m*3 15 C 0 km/h
1087 03-06-2010 01:24:06 15 C 8.72 g/m*3 15 C 0 km/h
1088 03-06-2010 01:36:06 15 C 8.72 g/m*3 15 C 0 km/h
1089 03-06-2010 01:48:06 14.8 C 8.74 g/m*3 14.8 C 0 km/h
1090 03-06-2010 02:00:06 14.6 C 8.76 g/m*3 14.6 C 0 km/h
1091 03-06-2010 02:12:06 14.5 C 8.71 g/m*3 14.5 C 0 km/h
1092 03-06-2010 02:24:06 14.4 C 8.65 g/m*3 14.4 C 0 km/h
1093 03-06-2010 02:36:06 14.4 C 8.65 g/m*3 14.4 C 0 km/h
1094 03-06-2010 02:48:06 14.2 C 8.67 g/m*3 14.2 C 0 km/h
1095 03-06-2010 03:00:06 14.2 C 8.55 g/m*3 14.2 C 0 km/h
1096 03-06-2010 03:12:06 14.1 C 8.5 g/m*3 14.1 C 0 km/h
1097 03-06-2010 03:24:07 14.1 C 8.5 g/m*3 14.1 C 0 km/h
1098 03-06-2010 03:36:07 13.9 C 8.51 g/m*3 13.9 C 0 km/h
1099 03-06-2010 03:48:07 13.8 C 8.58 g/m*3 13.8 C 0 km/h
1100 03-06-2010 04:00:07 13.6 C 8.47 g/m*3 13.6 C 0 km/h
Sensor: Nr:Datum:Temp:Abs-Feuchte:Windchill:Wind:
Aussen-T/F 1101 03-06-2010 04:12:07 13.3 C 8.43 g/m*3 13.3 C 0 km/h
1102 03-06-2010 04:24:07 13 C 8.28 g/m*3 13 C 0 km/h
1103 03-06-2010 04:36:07 13.1 C 8.33 g/m*3 13.1 C 0 km/h
1104 03-06-2010 04:48:07 13 C 8.28 g/m*3 13 C 0 km/h
1105 03-06-2010 05:00:07 13 C 8.28 g/m*3 13 C 0 km/h
1106 03-06-2010 05:12:07 12.8 C 8.29 g/m*3 12.8 C 0 km/h
1107 03-06-2010 05:24:07 12.7 C 8.35 g/m*3 12.7 C 0 km/h
1108 03-06-2010 05:36:07 12.5 C 8.36 g/m*3 12.5 C 0 km/h
1109 03-06-2010 05:48:07 12.5 C 8.36 g/m*3 12.5 C 0 km/h
1110 03-06-2010 06:00:07 12.4 C 8.3 g/m*3 12.4 C 0 km/h
1111 03-06-2010 06:12:07 12.5 C 8.47 g/m*3 12.5 C 0 km/h
1112 03-06-2010 06:24:07 12.6 C 8.3 g/m*3 12.6 C 0 km/h
1113 03-06-2010 06:36:07 12.7 C 8.35 g/m*3 12.7 C 0 km/h
1114 03-06-2010 06:48:07 12.8 C 8.4 g/m*3 12.8 C 0 km/h
1115 03-06-2010 07:00:07 12.9 C 8.45 g/m*3 12.9 C 0 km/h
1116 03-06-2010 07:12:06 13 C 8.28 g/m*3 13 C 0 km/h
1117 03-06-2010 07:24:05 13.1 C 8.22 g/m*3 13.1 C 0 km/h
1118 03-06-2010 07:36:06 13.1 C 8.22 g/m*3 13.1 C 0 km/h
1119 03-06-2010 07:48:02 13.3 C 8.32 g/m*3 13.3 C 0 km/h
1120 03-06-2010 08:00:02 13.5 C 8.07 g/m*3 13.5 C 0 km/h
1121 03-06-2010 08:12:02 13.8 C 8.1 g/m*3 13.8 C 0 km/h
1122 03-06-2010 08:24:02 13.9 C 8.03 g/m*3 13.9 C 0 km/h
1123 03-06-2010 08:36:02 14.2 C 7.69 g/m*3 14.2 C 0 km/h
1124 03-06-2010 08:48:02 14.5 C 7.71 g/m*3 14.5 C 0 km/h
1125 03-06-2010 09:00:02 15 C 7.82 g/m*3 15 C 0 km/h
Sensor: Nr:Datum:Temp:Abs-Feuchte:Windchill:Wind:
Aussen-T/F 1126 03-06-2010 09:12:03 15.4 C 7.49 g/m*3 15.4 C 0 km/h
1127 03-06-2010 09:24:02 16 C 7.36 g/m*3 16 C 0 km/h
1128 03-06-2010 09:36:02 16.4 C 7.12 g/m*3 16.4 C 0 km/h
1129 03-06-2010 09:48:01 16.9 C 7.34 g/m*3 16.9 C 0 km/h
1130 03-06-2010 10:00:01 17.2 C 7.18 g/m*3 17.2 C 0 km/h
1131 03-06-2010 10:12:02 18.1 C 7.11 g/m*3 18.1 C 0 km/h
1132 03-06-2010 10:24:01 18.7 C 6.72 g/m*3 18.7 C 0 km/h
1133 03-06-2010 10:36:02 19.1 C 6.88 g/m*3 19.1 C 0 km/h
1134 03-06-2010 10:48:02 20 C 6.74 g/m*3 20 C 0 km/h
1135 03-06-2010 11:00:02 20.4 C 6.55 g/m*3 20.4 C 0 km/h
1136 03-06-2010 11:12:02 20.8 C 6.34 g/m*3 20.8 C 0 km/h
1137 03-06-2010 11:24:03 20.7 C 6.3 g/m*3 20.7 C 0 km/h
1138 03-06-2010 11:36:02 21.2 C 5.93 g/m*3 21.2 C 0 km/h
1139 03-06-2010 11:48:02 22.6 C 6.03 g/m*3 22.6 C 0 km/h
1140 03-06-2010 12:00:02 23.2 C 5.61 g/m*3 23.2 C 0 km/h
1141 03-06-2010 12:12:02 23.4 C 5.47 g/m*3 23.4 C 0 km/h
1142 03-06-2010 12:24:02 25 C 5.52 g/m*3 25 C 0 km/h
1143 03-06-2010 12:36:02 24.6 C 5.63 g/m*3 24.6 C 0 km/h
1144 03-06-2010 12:48:02 24.6 C 5.85 g/m*3 24.6 C 0 km/h
1145 03-06-2010 13:00:02 24.8 C 5.92 g/m*3 24.8 C 0 km/h
1146 03-06-2010 13:12:03 26.3 C 4.95 g/m*3 26.3 C 0 km/h
1147 03-06-2010 13:24:02 27.6 C 5.32 g/m*3 27.6 C 0 km/h
1148 03-06-2010 13:36:03 26.8 C 5.09 g/m*3 26.8 C 0 km/h
1149 03-06-2010 13:48:09 26.3 C 4.95 g/m*3 26.3 C 0 km/h
1150 03-06-2010 14:00:09 26.4 C 4.98 g/m*3 26.4 C 0 km/h
Sensor: Nr:Datum:Temp:Abs-Feuchte:Windchill:Wind:
Aussen-T/F 1151 03-06-2010 14:12:05 25.6 C 4.76 g/m*3 25.6 C 0 km/h
1152 03-06-2010 14:24:06 25.6 C 4.76 g/m*3 25.6 C 0 km/h
1153 03-06-2010 14:36:04 25.9 C 4.84 g/m*3 25.9 C 0 km/h
1154 03-06-2010 14:48:02 26.4 C 4.98 g/m*3 26.4 C 0 km/h
1155 03-06-2010 15:00:02 28.1 C 5.47 g/m*3 28.1 C 0 km/h
1156 03-06-2010 15:12:01 27.8 C 5.38 g/m*3 27.8 C 0 km/h
1157 03-06-2010 15:24:01 27.4 C 5.26 g/m*3 27.4 C 0 km/h
1158 03-06-2010 15:36:02 28.1 C 5.47 g/m*3 28.1 C 0 km/h
1159 03-06-2010 15:48:02 28.3 C 5.53 g/m*3 28.3 C 0 km/h
1160 03-06-2010 16:00:02 29.2 C 5.81 g/m*3 29.2 C 0 km/h
1161 03-06-2010 16:12:01 29 C 5.74 g/m*3 29 C 0 km/h
1162 03-06-2010 16:24:02 30.1 C 6.1 g/m*3 30.1 C 0 km/h
1163 03-06-2010 16:36:02 30.1 C 6.1 g/m*3 30.1 C 0 km/h
1164 03-06-2010 16:48:02 29 C 5.74 g/m*3 29 C 0 km/h
1165 03-06-2010 17:00:02 30.3 C 6.16 g/m*3 30.3 C 0 km/h
1166 03-06-2010 17:12:02 30 C 6.06 g/m*3 30 C 0 km/h
1167 03-06-2010 17:24:02 29.8 C 6 g/m*3 29.8 C 0 km/h
1168 03-06-2010 17:36:02 29.7 C 5.97 g/m*3 29.7 C 0 km/h
1169 03-06-2010 17:48:02 30.1 C 6.1 g/m*3 30.1 C 0 km/h
1170 03-06-2010 18:00:02 29.5 C 5.9 g/m*3 29.5 C 0 km/h
1171 03-06-2010 18:12:02 28.7 C 5.65 g/m*3 28.7 C 0 km/h
1172 03-06-2010 18:24:02 28.8 C 5.68 g/m*3 28.8 C 0 km/h
1173 03-06-2010 18:36:02 29.4 C 5.87 g/m*3 29.4 C 0 km/h
1174 03-06-2010 18:48:02 28.5 C 5.59 g/m*3 28.5 C 0 km/h
1175 03-06-2010 19:00:02 28.2 C 5.5 g/m*3 28.2 C 0 km/h
Sensor: Nr:Datum:Temp:Abs-Feuchte:Windchill:Wind:
Aussen-T/F 1176 03-06-2010 19:12:02 28.6 C 5.62 g/m*3 28.6 C 0 km/h
1177 03-06-2010 19:24:03 29.6 C 5.94 g/m*3 29.6 C 0 km/h
1178 03-06-2010 19:36:02 29.8 C 6 g/m*3 29.8 C 0 km/h
1179 03-06-2010 19:48:02 29.2 C 5.81 g/m*3 29.2 C 0 km/h
1180 03-06-2010 20:00:02 28.1 C 5.47 g/m*3 28.1 C 0 km/h
1181 03-06-2010 20:12:01 27.9 C 5.41 g/m*3 27.9 C 0 km/h
1182 03-06-2010 20:24:02 26.4 C 4.98 g/m*3 26.4 C 0 km/h
1183 03-06-2010 20:36:01 26.3 C 5.45 g/m*3 26.3 C 0 km/h
1184 03-06-2010 20:48:02 26.3 C 5.45 g/m*3 26.3 C 0 km/h
1185 03-06-2010 21:00:02 25.7 C 5.75 g/m*3 25.7 C 0 km/h
1186 03-06-2010 21:12:02 24.8 C 6.6 g/m*3 24.8 C 0 km/h
1187 03-06-2010 21:24:01 23.8 C 6.88 g/m*3 23.8 C 0 km/h
1188 03-06-2010 21:36:02 22.7 C 6.87 g/m*3 22.7 C 0 km/h
1189 03-06-2010 21:48:01 21.7 C 6.68 g/m*3 21.7 C 0 km/h
1190 03-06-2010 22:00:01 21 C 6.41 g/m*3 21 C 0 km/h
1191 03-06-2010 22:12:02 20.5 C 6.58 g/m*3 20.5 C 0 km/h
1192 03-06-2010 22:24:41 20.1 C 6.43 g/m*3 20.1 C 0 km/h
1193 03-06-2010 22:37:03 19.7 C 6.45 g/m*3 19.7 C 0 km/h
1194 03-06-2010 22:49:03 19.5 C 6.38 g/m*3 19.5 C 0 km/h
1195 03-06-2010 23:01:03 19.3 C 6.63 g/m*3 19.3 C 0 km/h
1196 03-06-2010 23:13:03 18.8 C 6.44 g/m*3 18.8 C 0 km/h
1197 03-06-2010 23:25:03 18.6 C 6.68 g/m*3 18.6 C 0 km/h
1198 03-06-2010 23:37:03 18.3 C 6.57 g/m*3 18.3 C 0 km/h
1199 03-06-2010 23:49:03 18.2 C 6.53 g/m*3 18.2 C 0 km/h
1200 04-06-2010 00:01:03 17.9 C 6.72 g/m*3 17.9 C 0 km/h
Sensor: Nr:Datum:Temp:Abs-Feuchte:Windchill:Wind:
Aussen-T/F 1201 04-06-2010 00:13:03 17.7 C 6.79 g/m*3 17.7 C 0 km/h
1202 04-06-2010 00:25:03 17.5 C 6.86 g/m*3 17.5 C 0 km/h
1203 04-06-2010 00:37:03 17.2 C 6.88 g/m*3 17.2 C 0 km/h
1204 04-06-2010 00:49:03 16.9 C 7.05 g/m*3 16.9 C 0 km/h
1205 04-06-2010 01:01:03 16.6 C 6.92 g/m*3 16.6 C 0 km/h
1206 04-06-2010 01:13:03 16.1 C 6.99 g/m*3 16.1 C 0 km/h
1207 04-06-2010 01:25:03 15.9 C 7.18 g/m*3 15.9 C 0 km/h
1208 04-06-2010 01:37:04 15.6 C 7.05 g/m*3 15.6 C 0 km/h
1209 04-06-2010 01:49:04 15.3 C 7.05 g/m*3 15.3 C 0 km/h
1210 04-06-2010 02:01:04 15.2 C 7.14 g/m*3 15.2 C 0 km/h
1211 04-06-2010 02:13:04 14.8 C 7.09 g/m*3 14.8 C 0 km/h
1212 04-06-2010 02:25:04 14.5 C 7.21 g/m*3 14.5 C 0 km/h
1213 04-06-2010 02:37:04 14.4 C 7.29 g/m*3 14.4 C 0 km/h
1214 04-06-2010 02:49:04 14.3 C 7.37 g/m*3 14.3 C 0 km/h
1215 04-06-2010 03:01:04 14 C 7.24 g/m*3 14 C 0 km/h
1216 04-06-2010 03:13:04 13.9 C 7.43 g/m*3 13.9 C 0 km/h
1217 04-06-2010 03:25:04 13.6 C 7.41 g/m*3 13.6 C 0 km/h
1218 04-06-2010 03:37:04 13.5 C 7.49 g/m*3 13.5 C 0 km/h
1219 04-06-2010 03:49:04 13.2 C 7.58 g/m*3 13.2 C 0 km/h
1220 04-06-2010 04:01:04 13.1 C 7.65 g/m*3 13.1 C 0 km/h
1221 04-06-2010 04:13:04 13 C 7.6 g/m*3 13 C 0 km/h
1222 04-06-2010 04:25:04 12.8 C 7.62 g/m*3 12.8 C 0 km/h
1223 04-06-2010 04:37:04 12.7 C 7.68 g/m*3 12.7 C 0 km/h
1224 04-06-2010 04:49:04 12.3 C 7.49 g/m*3 12.3 C 0 km/h
1225 04-06-2010 05:01:04 12.4 C 7.65 g/m*3 12.4 C 0 km/h
Sensor: Nr:Datum:Temp:Abs-Feuchte:Windchill:Wind:
Aussen-T/F 1226 04-06-2010 05:13:04 12.4 C 7.54 g/m*3 12.4 C 0 km/h
1227 04-06-2010 05:25:04 12 C 7.57 g/m*3 12 C 0 km/h
1228 04-06-2010 05:37:04 12 C 7.57 g/m*3 12 C 0 km/h
1229 04-06-2010 05:49:04 11.8 C 7.68 g/m*3 11.8 C 0 km/h
1230 04-06-2010 06:01:05 11.9 C 7.73 g/m*3 11.9 C 0 km/h
1231 04-06-2010 06:13:05 11.8 C 7.79 g/m*3 11.8 C 0 km/h
1232 04-06-2010 06:25:05 11.9 C 7.84 g/m*3 11.9 C 0 km/h
1233 04-06-2010 06:37:05 12 C 7.89 g/m*3 12 C 0 km/h
1234 04-06-2010 06:49:05 12.1 C 7.94 g/m*3 12.1 C 0 km/h
1235 04-06-2010 07:01:05 12.1 C 7.94 g/m*3 12.1 C 0 km/h
1236 04-06-2010 07:13:05 12.4 C 8.09 g/m*3 12.4 C 0 km/h
1237 04-06-2010 07:25:05 12.4 C 7.98 g/m*3 12.4 C 0 km/h
1238 04-06-2010 07:37:03 12.5 C 8.03 g/m*3 12.5 C 0 km/h
1239 04-06-2010 07:49:02 12.8 C 8.18 g/m*3 12.8 C 0 km/h
1240 04-06-2010 08:01:02 13 C 8.17 g/m*3 13 C 0 km/h
1241 04-06-2010 08:13:02 13.3 C 8.2 g/m*3 13.3 C 0 km/h
1242 04-06-2010 08:25:01 13.6 C 8.24 g/m*3 13.6 C 0 km/h
1243 04-06-2010 08:37:02 14 C 8.32 g/m*3 14 C 0 km/h
1244 04-06-2010 08:49:01 14.7 C 8.44 g/m*3 14.7 C 0 km/h
1245 04-06-2010 09:01:02 15.4 C 8.41 g/m*3 15.4 C 0 km/h
1246 04-06-2010 09:13:02 16 C 8.17 g/m*3 16 C 0 km/h
1247 04-06-2010 09:25:02 16.8 C 8.44 g/m*3 16.8 C 0 km/h
1248 04-06-2010 09:37:02 17.5 C 8.5 g/m*3 17.5 C 0 km/h
1249 04-06-2010 09:49:02 18.2 C 8.24 g/m*3 18.2 C 0 km/h
1250 04-06-2010 10:01:02 18.7 C 8.17 g/m*3 18.7 C 0 km/h
Sensor: Nr:Datum:Temp:Abs-Feuchte:Windchill:Wind:
Aussen-T/F 1251 04-06-2010 10:13:02 19.6 C 8.44 g/m*3 19.6 C 0 km/h
1252 04-06-2010 10:25:06 20.2 C 8.04 g/m*3 20.2 C 0 km/h
1253 04-06-2010 10:37:09 20.6 C 7.87 g/m*3 20.6 C 0 km/h
1254 04-06-2010 10:49:05 21.2 C 7.97 g/m*3 21.2 C 0 km/h
1255 04-06-2010 11:01:04 22 C 7.57 g/m*3 22 C 0 km/h
1256 04-06-2010 11:13:04 21.4 C 7.12 g/m*3 21.4 C 0 km/h
1257 04-06-2010 11:25:03 21.8 C 7.48 g/m*3 21.8 C 0 km/h
1258 04-06-2010 11:37:03 22.5 C 6.99 g/m*3 22.5 C 0 km/h
1259 04-06-2010 11:49:02 22.8 C 6.71 g/m*3 22.8 C 0 km/h
1260 04-06-2010 12:01:01 24.5 C 6.04 g/m*3 24.5 C 0 km/h
1261 04-06-2010 12:13:01 25.7 C 5.99 g/m*3 25.7 C 0 km/h
1262 04-06-2010 12:25:02 25.8 C 6.26 g/m*3 25.8 C 0 km/h
1263 04-06-2010 12:37:02 26.8 C 5.85 g/m*3 26.8 C 0 km/h
1264 04-06-2010 12:49:02 26.3 C 5.2 g/m*3 26.3 C 0 km/h
1265 04-06-2010 13:01:02 27.6 C 6.12 g/m*3 27.6 C 0 km/h
1266 04-06-2010 13:13:02 28.3 C 5.53 g/m*3 28.3 C 0 km/h
1267 04-06-2010 13:25:02 29.6 C 5.94 g/m*3 29.6 C 0 km/h
1268 04-06-2010 13:37:02 29.8 C 6 g/m*3 29.8 C 0 km/h
1269 04-06-2010 13:49:01 29.6 C 5.94 g/m*3 29.6 C 0 km/h
1270 04-06-2010 14:01:02 28.2 C 5.5 g/m*3 28.2 C 0 km/h
1271 04-06-2010 14:13:02 27.9 C 5.68 g/m*3 27.9 C 0 km/h
1272 04-06-2010 14:25:01 28 C 5.98 g/m*3 28 C 0 km/h
1273 04-06-2010 14:37:01 27.7 C 5.62 g/m*3 27.7 C 0 km/h
1274 04-06-2010 14:49:01 27.7 C 5.62 g/m*3 27.7 C 0 km/h
1275 04-06-2010 15:01:02 28.2 C 5.5 g/m*3 28.2 C 0 km/h
Sensor: Nr:Datum:Temp:Abs-Feuchte:Windchill:Wind:
Aussen-T/F 1276 04-06-2010 15:13:02 28.2 C 5.5 g/m*3 28.2 C 0 km/h
1277 04-06-2010 15:25:01 29.3 C 5.84 g/m*3 29.3 C 0 km/h
1278 04-06-2010 15:37:01 29.2 C 5.81 g/m*3 29.2 C 0 km/h
1279 04-06-2010 15:49:01 30.8 C 6.33 g/m*3 30.8 C 0 km/h
1280 04-06-2010 16:01:02 30.2 C 6.13 g/m*3 30.2 C 0 km/h
1281 04-06-2010 16:13:03 30.7 C 6.3 g/m*3 30.7 C 0 km/h
1282 04-06-2010 16:25:01 30.1 C 6.1 g/m*3 30.1 C 0 km/h
1283 04-06-2010 16:37:02 29.9 C 6.03 g/m*3 29.9 C 0 km/h
1284 04-06-2010 16:49:02 31 C 6.4 g/m*3 31 C 0 km/h
1285 04-06-2010 17:01:02 31 C 6.4 g/m*3 31 C 0 km/h
1286 04-06-2010 17:13:02 30.4 C 6.2 g/m*3 30.4 C 0 km/h
1287 04-06-2010 17:25:02 30.8 C 6.33 g/m*3 30.8 C 0 km/h
1288 04-06-2010 17:37:02 31.6 C 6.61 g/m*3 31.6 C 0 km/h
1289 04-06-2010 17:49:02 31.4 C 6.54 g/m*3 31.4 C 0 km/h
1290 04-06-2010 18:01:02 31.8 C 6.68 g/m*3 31.8 C 0 km/h
1291 04-06-2010 18:13:02 32.3 C 6.86 g/m*3 32.3 C 0 km/h
1292 04-06-2010 18:25:01 32 C 6.75 g/m*3 32 C 0 km/h
1293 04-06-2010 18:37:02 31.5 C 6.57 g/m*3 31.5 C 0 km/h
1294 04-06-2010 18:49:02 31.8 C 6.68 g/m*3 31.8 C 0 km/h
1295 04-06-2010 19:01:02 30.8 C 6.33 g/m*3 30.8 C 0 km/h
1296 04-06-2010 19:13:02 30.6 C 6.26 g/m*3 30.6 C 0 km/h
1297 04-06-2010 19:25:02 30.4 C 6.2 g/m*3 30.4 C 0 km/h
1298 04-06-2010 19:37:02 30.3 C 6.16 g/m*3 30.3 C 0 km/h
1299 04-06-2010 19:49:01 30.1 C 6.1 g/m*3 30.1 C 0 km/h
1300 04-06-2010 20:01:02 29.9 C 6.03 g/m*3 29.9 C 0 km/h
Sensor: Nr:Datum:Temp:Abs-Feuchte:Windchill:Wind:
Aussen-T/F 1301 04-06-2010 20:13:02 29.6 C 5.94 g/m*3 29.6 C 0 km/h
1302 04-06-2010 20:25:01 28.9 C 5.71 g/m*3 28.9 C 0 km/h
1303 04-06-2010 20:37:01 28.8 C 5.68 g/m*3 28.8 C 0 km/h
1304 04-06-2010 20:49:01 28 C 5.98 g/m*3 28 C 0 km/h
1305 04-06-2010 21:01:02 26.2 C 5.91 g/m*3 26.2 C 0 km/h
1306 04-06-2010 21:13:03 24.9 C 6.18 g/m*3 24.9 C 0 km/h
1307 04-06-2010 21:25:01 23.9 C 6.27 g/m*3 23.9 C 0 km/h
1308 04-06-2010 21:37:01 23.3 C 6.48 g/m*3 23.3 C 0 km/h
1309 04-06-2010 21:49:01 23.2 C 6.44 g/m*3 23.2 C 0 km/h
1310 04-06-2010 22:01:02 22.9 C 6.54 g/m*3 22.9 C 0 km/h
1311 04-06-2010 22:13:02 22.5 C 6.79 g/m*3 22.5 C 0 km/h
1312 04-06-2010 22:25:01 22.1 C 6.83 g/m*3 22.1 C 0 km/h
1313 04-06-2010 22:37:02 21.6 C 7.02 g/m*3 21.6 C 0 km/h
1314 04-06-2010 22:50:37 21 C 7.14 g/m*3 21 C 0 km/h
1315 04-06-2010 23:02:37 20.5 C 7.47 g/m*3 20.5 C 0 km/h
1316 04-06-2010 23:14:37 20.3 C 7.39 g/m*3 20.3 C 0 km/h
1317 04-06-2010 23:26:37 19.9 C 7.56 g/m*3 19.9 C 0 km/h
1318 04-06-2010 23:38:37 19.4 C 7.67 g/m*3 19.4 C 0 km/h
1319 04-06-2010 23:50:37 19 C 7.66 g/m*3 19 C 0 km/h
1320 05-06-2010 00:02:37 18.6 C 7.8 g/m*3 18.6 C 0 km/h
1321 05-06-2010 00:14:37 18.4 C 7.86 g/m*3 18.4 C 0 km/h
1322 05-06-2010 00:26:37 18.1 C 7.88 g/m*3 18.1 C 0 km/h
1323 05-06-2010 00:38:37 18 C 7.99 g/m*3 18 C 0 km/h
1324 05-06-2010 00:50:37 17.7 C 8 g/m*3 17.7 C 0 km/h
1325 05-06-2010 01:02:37 17.5 C 7.9 g/m*3 17.5 C 0 km/h
Sensor: Nr:Datum:Temp:Abs-Feuchte:Windchill:Wind:
Aussen-T/F 1326 05-06-2010 01:14:37 17.3 C 7.96 g/m*3 17.3 C 0 km/h
1327 05-06-2010 01:26:37 17.2 C 7.91 g/m*3 17.2 C 0 km/h
1328 05-06-2010 01:38:37 17 C 7.96 g/m*3 17 C 0 km/h
1329 05-06-2010 01:50:37 16.7 C 8.1 g/m*3 16.7 C 0 km/h
1330 05-06-2010 02:02:37 16.4 C 8.1 g/m*3 16.4 C 0 km/h
1331 05-06-2010 02:14:37 16 C 8.04 g/m*3 16 C 0 km/h
1332 05-06-2010 02:26:38 15.8 C 8.21 g/m*3 15.8 C 0 km/h
1333 05-06-2010 02:38:38 15.6 C 8.25 g/m*3 15.6 C 0 km/h
1334 05-06-2010 02:50:38 15.3 C 8.23 g/m*3 15.3 C 0 km/h
1335 05-06-2010 03:02:38 15.3 C 8.36 g/m*3 15.3 C 0 km/h
1336 05-06-2010 03:14:38 14.8 C 8.49 g/m*3 14.8 C 0 km/h
1337 05-06-2010 03:26:38 14.8 C 8.36 g/m*3 14.8 C 0 km/h
1338 05-06-2010 03:38:38 14.7 C 8.44 g/m*3 14.7 C 0 km/h
1339 05-06-2010 03:50:38 14.6 C 8.51 g/m*3 14.6 C 0 km/h
1340 05-06-2010 04:02:38 14.5 C 8.33 g/m*3 14.5 C 0 km/h
1341 05-06-2010 04:14:38 14.5 C 8.33 g/m*3 14.5 C 0 km/h
1342 05-06-2010 04:26:38 14.3 C 8.35 g/m*3 14.3 C 0 km/h
1343 05-06-2010 04:38:38 14.1 C 8.25 g/m*3 14.1 C 0 km/h
1344 05-06-2010 04:50:38 14.3 C 8.48 g/m*3 14.3 C 0 km/h
1345 05-06-2010 05:02:38 13.7 C 8.29 g/m*3 13.7 C 0 km/h
1346 05-06-2010 05:14:38 13.5 C 8.19 g/m*3 13.5 C 0 km/h
1347 05-06-2010 05:26:38 13.5 C 8.3 g/m*3 13.5 C 0 km/h
1348 05-06-2010 05:38:38 13.3 C 8.32 g/m*3 13.3 C 0 km/h
1349 05-06-2010 05:50:38 13.2 C 8.27 g/m*3 13.2 C 0 km/h
1350 05-06-2010 06:02:38 13 C 8.28 g/m*3 13 C 0 km/h
Sensor: Nr:Datum:Temp:Abs-Feuchte:Windchill:Wind:
Aussen-T/F 1351 05-06-2010 06:14:38 13 C 8.39 g/m*3 13 C 0 km/h
1352 05-06-2010 06:26:38 13 C 8.39 g/m*3 13 C 0 km/h
1353 05-06-2010 06:38:39 13.2 C 8.61 g/m*3 13.2 C 0 km/h
1354 05-06-2010 06:50:39 13.4 C 8.6 g/m*3 13.4 C 0 km/h
1355 05-06-2010 07:02:39 13.5 C 8.66 g/m*3 13.5 C 0 km/h
1356 05-06-2010 07:14:39 13.8 C 8.7 g/m*3 13.8 C 0 km/h
1357 05-06-2010 07:26:39 13.7 C 8.53 g/m*3 13.7 C 0 km/h
1358 05-06-2010 07:38:39 13.8 C 8.46 g/m*3 13.8 C 0 km/h
1359 05-06-2010 07:50:39 14 C 8.56 g/m*3 14 C 0 km/h
1360 05-06-2010 08:02:02 14.4 C 8.65 g/m*3 14.4 C 0 km/h
1361 05-06-2010 08:14:02 14.7 C 8.69 g/m*3 14.7 C 0 km/h
1362 05-06-2010 08:26:02 15.2 C 8.31 g/m*3 15.2 C 0 km/h
1363 05-06-2010 08:38:02 15.5 C 8.33 g/m*3 15.5 C 0 km/h
1364 05-06-2010 08:50:01 15.8 C 8.08 g/m*3 15.8 C 0 km/h
1365 05-06-2010 09:02:02 16.4 C 8.37 g/m*3 16.4 C 0 km/h
1366 05-06-2010 09:14:02 17.1 C 8.44 g/m*3 17.1 C 0 km/h
1367 05-06-2010 09:26:02 17.9 C 8.7 g/m*3 17.9 C 0 km/h
1368 05-06-2010 09:38:01 18.7 C 8.81 g/m*3 18.7 C 0 km/h
1369 05-06-2010 09:50:02 19.4 C 8.84 g/m*3 19.4 C 0 km/h
1370 05-06-2010 10:02:01 19.9 C 8.93 g/m*3 19.9 C 0 km/h
1371 05-06-2010 10:14:01 20.9 C 9.11 g/m*3 20.9 C 0 km/h
1372 05-06-2010 10:26:02 21.4 C 9 g/m*3 21.4 C 0 km/h
1373 05-06-2010 10:38:01 22.5 C 8.99 g/m*3 22.5 C 0 km/h
1374 05-06-2010 10:50:02 23 C 8.84 g/m*3 23 C 0 km/h
1375 05-06-2010 11:02:01 23.4 C 8.83 g/m*3 23.4 C 0 km/h
Sensor: Nr:Datum:Temp:Abs-Feuchte:Windchill:Wind:
Aussen-T/F 1376 05-06-2010 11:14:01 24.1 C 8.75 g/m*3 24.1 C 0 km/h
1377 05-06-2010 11:26:01 25 C 8.52 g/m*3 25 C 0 km/h
1378 05-06-2010 11:38:02 26 C 8.03 g/m*3 26 C 0 km/h
1379 05-06-2010 11:50:02 26.7 C 7.85 g/m*3 26.7 C 0 km/h
1380 05-06-2010 12:02:01 26.8 C 7.64 g/m*3 26.8 C 0 km/h
1381 05-06-2010 12:14:01 27.4 C 6.31 g/m*3 27.4 C 0 km/h
1382 05-06-2010 12:26:02 28 C 5.44 g/m*3 28 C 0 km/h
1383 05-06-2010 12:38:02 28.9 C 6.28 g/m*3 28.9 C 0 km/h
1384 05-06-2010 12:50:02 30.2 C 6.44 g/m*3 30.2 C 0 km/h
1385 05-06-2010 13:02:03 29 C 5.74 g/m*3 29 C 0 km/h
1386 05-06-2010 13:14:03 30.1 C 6.1 g/m*3 30.1 C 0 km/h
1387 05-06-2010 13:26:02 31.2 C 6.47 g/m*3 31.2 C 0 km/h
1388 05-06-2010 13:38:02 31.6 C 6.61 g/m*3 31.6 C 0 km/h
1389 05-06-2010 13:50:01 30.9 C 6.37 g/m*3 30.9 C 0 km/h
1390 05-06-2010 14:02:02 30.1 C 6.1 g/m*3 30.1 C 0 km/h
1391 05-06-2010 14:14:03 29.5 C 5.9 g/m*3 29.5 C 0 km/h
1392 05-06-2010 14:26:01 29.9 C 6.03 g/m*3 29.9 C 0 km/h
1393 05-06-2010 14:38:01 30.7 C 6.3 g/m*3 30.7 C 0 km/h
1394 05-06-2010 14:50:01 31 C 6.4 g/m*3 31 C 0 km/h
1395 05-06-2010 15:02:02 30.8 C 6.33 g/m*3 30.8 C 0 km/h
1396 05-06-2010 15:14:02 31.6 C 6.61 g/m*3 31.6 C 0 km/h
1397 05-06-2010 15:26:02 32.1 C 6.79 g/m*3 32.1 C 0 km/h
1398 05-06-2010 15:38:01 32.7 C 7.01 g/m*3 32.7 C 0 km/h
1399 05-06-2010 15:50:01 31.8 C 6.68 g/m*3 31.8 C 0 km/h
1400 05-06-2010 16:02:01 31.7 C 6.64 g/m*3 31.7 C 0 km/h
Sensor: Nr:Datum:Temp:Abs-Feuchte:Windchill:Wind:
Aussen-T/F 1401 05-06-2010 16:14:01 32.4 C 6.9 g/m*3 32.4 C 0 km/h
1402 05-06-2010 16:26:02 33.1 C 7.16 g/m*3 33.1 C 0 km/h
1403 05-06-2010 16:38:01 33.2 C 7.2 g/m*3 33.2 C 0 km/h
1404 05-06-2010 16:50:02 33 C 7.12 g/m*3 33 C 0 km/h
1405 05-06-2010 17:02:01 33.3 C 7.23 g/m*3 33.3 C 0 km/h
1406 05-06-2010 17:14:01 33.3 C 7.23 g/m*3 33.3 C 0 km/h
1407 05-06-2010 17:26:01 32.9 C 7.08 g/m*3 32.9 C 0 km/h
1408 05-06-2010 17:38:01 33 C 7.12 g/m*3 33 C 0 km/h
1409 05-06-2010 17:50:01 33.3 C 7.23 g/m*3 33.3 C 0 km/h
1410 05-06-2010 18:02:02 32.9 C 7.08 g/m*3 32.9 C 0 km/h
1411 05-06-2010 18:14:02 33.1 C 7.16 g/m*3 33.1 C 0 km/h
1412 05-06-2010 18:26:01 33.2 C 7.2 g/m*3 33.2 C 0 km/h
1413 05-06-2010 18:38:01 33.3 C 7.23 g/m*3 33.3 C 0 km/h
1414 05-06-2010 18:50:01 32.9 C 7.08 g/m*3 32.9 C 0 km/h
1415 05-06-2010 19:02:02 33.1 C 7.16 g/m*3 33.1 C 0 km/h
1416 05-06-2010 19:14:02 31.9 C 6.72 g/m*3 31.9 C 0 km/h
1417 05-06-2010 19:26:02 31.7 C 6.98 g/m*3 31.7 C 0 km/h
1418 05-06-2010 19:38:01 31.2 C 7.12 g/m*3 31.2 C 0 km/h
1419 05-06-2010 19:50:01 31 C 7.36 g/m*3 31 C 0 km/h
1420 05-06-2010 20:02:01 30.5 C 7.79 g/m*3 30.5 C 0 km/h
1421 05-06-2010 20:14:01 29.8 C 7.8 g/m*3 29.8 C 0 km/h
1422 05-06-2010 20:26:02 29 C 7.76 g/m*3 29 C 0 km/h
1423 05-06-2010 20:38:01 28.5 C 7.83 g/m*3 28.5 C 0 km/h
1424 05-06-2010 20:50:02 27.4 C 7.89 g/m*3 27.4 C 0 km/h
1425 05-06-2010 21:02:01 26.3 C 7.67 g/m*3 26.3 C 0 km/h
Sensor: Nr:Datum:Temp:Abs-Feuchte:Windchill:Wind:
Aussen-T/F 1426 05-06-2010 21:14:01 25.7 C 7.9 g/m*3 25.7 C 0 km/h
1427 05-06-2010 21:26:02 25.2 C 7.68 g/m*3 25.2 C 0 km/h
1428 05-06-2010 21:38:01 25.1 C 7.64 g/m*3 25.1 C 0 km/h
1429 05-06-2010 21:50:02 24.5 C 7.83 g/m*3 24.5 C 0 km/h
1430 05-06-2010 22:02:02 24.1 C 8.1 g/m*3 24.1 C 0 km/h
1431 05-06-2010 22:14:02 23.7 C 8.34 g/m*3 23.7 C 0 km/h
1432 05-06-2010 22:26:02 23.2 C 8.32 g/m*3 23.2 C 0 km/h
1433 05-06-2010 22:38:02 23 C 8.43 g/m*3 23 C 0 km/h
1434 05-06-2010 22:51:02 22.9 C 8.17 g/m*3 22.9 C 0 km/h
1435 05-06-2010 23:03:03 22.5 C 8.19 g/m*3 22.5 C 0 km/h
1436 05-06-2010 23:15:03 22.2 C 8.05 g/m*3 22.2 C 0 km/h
1437 05-06-2010 23:27:03 21.9 C 8.3 g/m*3 21.9 C 0 km/h
1438 05-06-2010 23:39:03 21.5 C 8.49 g/m*3 21.5 C 0 km/h
1439 05-06-2010 23:51:03 21.3 C 8.39 g/m*3 21.3 C 0 km/h
1440 06-06-2010 00:03:03 21.1 C 8.48 g/m*3 21.1 C 0 km/h
1441 06-06-2010 00:15:03 21 C 8.61 g/m*3 21 C 0 km/h
1442 06-06-2010 00:27:03 20.8 C 8.69 g/m*3 20.8 C 0 km/h
1443 06-06-2010 00:39:03 20.4 C 8.67 g/m*3 20.4 C 0 km/h
1444 06-06-2010 00:51:03 20.2 C 8.74 g/m*3 20.2 C 0 km/h
1445 06-06-2010 01:03:03 19.9 C 8.93 g/m*3 19.9 C 0 km/h
1446 06-06-2010 01:15:03 19.5 C 8.89 g/m*3 19.5 C 0 km/h
1447 06-06-2010 01:27:03 19.3 C 8.96 g/m*3 19.3 C 0 km/h
1448 06-06-2010 01:39:03 19 C 8.8 g/m*3 19 C 0 km/h
1449 06-06-2010 01:51:03 18.7 C 9.13 g/m*3 18.7 C 0 km/h
1450 06-06-2010 02:03:03 18.5 C 9.33 g/m*3 18.5 C 0 km/h
Sensor: Nr:Datum:Temp:Abs-Feuchte:Windchill:Wind:
Aussen-T/F 1451 06-06-2010 02:15:03 18.3 C 9.22 g/m*3 18.3 C 0 km/h
1452 06-06-2010 02:27:03 18.1 C 9.27 g/m*3 18.1 C 0 km/h
1453 06-06-2010 02:39:03 18.1 C 9.27 g/m*3 18.1 C 0 km/h
1454 06-06-2010 02:51:03 17.9 C 9.47 g/m*3 17.9 C 0 km/h
1455 06-06-2010 03:03:03 17.7 C 9.35 g/m*3 17.7 C 0 km/h
1456 06-06-2010 03:15:03 17.4 C 9.19 g/m*3 17.4 C 0 km/h
1457 06-06-2010 03:27:04 17.3 C 9.13 g/m*3 17.3 C 0 km/h
1458 06-06-2010 03:39:04 17.3 C 9.28 g/m*3 17.3 C 0 km/h
1459 06-06-2010 03:51:04 17.1 C 9.17 g/m*3 17.1 C 0 km/h
1460 06-06-2010 04:03:04 16.9 C 9.21 g/m*3 16.9 C 0 km/h
1461 06-06-2010 04:15:04 16.6 C 9.04 g/m*3 16.6 C 0 km/h
1462 06-06-2010 04:27:04 16.4 C 9.07 g/m*3 16.4 C 0 km/h
1463 06-06-2010 04:39:04 16.2 C 9.1 g/m*3 16.2 C 0 km/h
1464 06-06-2010 04:51:04 15.9 C 9.21 g/m*3 15.9 C 0 km/h
1465 06-06-2010 05:03:04 15.8 C 9.29 g/m*3 15.8 C 0 km/h
1466 06-06-2010 05:15:04 15.6 C 9.18 g/m*3 15.6 C 0 km/h
1467 06-06-2010 05:27:04 15.4 C 9.2 g/m*3 15.4 C 0 km/h
1468 06-06-2010 05:39:04 15.3 C 9.14 g/m*3 15.3 C 0 km/h
1469 06-06-2010 05:51:04 15.2 C 9.22 g/m*3 15.2 C 0 km/h
1470 06-06-2010 06:03:04 15.3 C 9.4 g/m*3 15.3 C 0 km/h
1471 06-06-2010 06:15:04 15.3 C 9.4 g/m*3 15.3 C 0 km/h
1472 06-06-2010 06:27:04 15.4 C 9.46 g/m*3 15.4 C 0 km/h
1473 06-06-2010 06:39:04 15.2 C 9.35 g/m*3 15.2 C 0 km/h
1474 06-06-2010 06:51:04 15.4 C 9.46 g/m*3 15.4 C 0 km/h
1475 06-06-2010 07:03:04 15.5 C 9.52 g/m*3 15.5 C 0 km/h
Sensor: Nr:Datum:Temp:Abs-Feuchte:Windchill:Wind:
Aussen-T/F 1476 06-06-2010 07:15:04 15.8 C 9.56 g/m*3 15.8 C 0 km/h
1477 06-06-2010 07:27:04 16.2 C 9.52 g/m*3 16.2 C 0 km/h
1478 06-06-2010 07:39:04 16.5 C 9.55 g/m*3 16.5 C 0 km/h
1479 06-06-2010 07:51:04 16.3 C 9.43 g/m*3 16.3 C 0 km/h
1480 06-06-2010 08:03:02 16.5 C 9.55 g/m*3 16.5 C 0 km/h
1481 06-06-2010 08:15:02 17.1 C 9.46 g/m*3 17.1 C 0 km/h
1482 06-06-2010 08:27:02 17.3 C 9.43 g/m*3 17.3 C 0 km/h
1483 06-06-2010 08:39:02 17.6 C 9 g/m*3 17.6 C 0 km/h
1484 06-06-2010 08:51:01 18.1 C 9.12 g/m*3 18.1 C 0 km/h
1485 06-06-2010 09:03:01 18.5 C 9.02 g/m*3 18.5 C 0 km/h
1486 06-06-2010 09:15:01 18.9 C 9.07 g/m*3 18.9 C 0 km/h
1487 06-06-2010 09:27:01 19.4 C 9.01 g/m*3 19.4 C 0 km/h
1488 06-06-2010 09:39:01 20.1 C 8.87 g/m*3 20.1 C 0 km/h
1489 06-06-2010 09:51:01 20.8 C 8.87 g/m*3 20.8 C 0 km/h
1490 06-06-2010 10:03:01 21.3 C 8.95 g/m*3 21.3 C 0 km/h
1491 06-06-2010 10:15:02 22.4 C 9.53 g/m*3 22.4 C 0 km/h
1492 06-06-2010 10:27:02 23.1 C 9.3 g/m*3 23.1 C 0 km/h
1493 06-06-2010 10:39:01 24.1 C 9.63 g/m*3 24.1 C 0 km/h
1494 06-06-2010 10:51:03 24.6 C 9.45 g/m*3 24.6 C 0 km/h
1495 06-06-2010 11:03:02 25.8 C 9.63 g/m*3 25.8 C 0 km/h
1496 06-06-2010 11:15:02 26.5 C 9.51 g/m*3 26.5 C 0 km/h
1497 06-06-2010 11:27:02 27.2 C 9.37 g/m*3 27.2 C 0 km/h
1498 06-06-2010 11:39:02 27.6 C 9.58 g/m*3 27.6 C 0 km/h
1499 06-06-2010 11:51:02 28.6 C 9.84 g/m*3 28.6 C 0 km/h
1500 06-06-2010 12:03:01 29.1 C 9.53 g/m*3 29.1 C 0 km/h
Sensor: Nr:Datum:Temp:Abs-Feuchte:Windchill:Wind:
Aussen-T/F 1501 06-06-2010 12:15:02 29.7 C 8.35 g/m*3 29.7 C 0 km/h
1502 06-06-2010 12:27:02 29.6 C 8.01 g/m*3 29.6 C 0 km/h
1503 06-06-2010 12:39:02 30 C 7.88 g/m*3 30 C 0 km/h
1504 06-06-2010 12:51:01 29.4 C 9.69 g/m*3 29.4 C 0 km/h
1505 06-06-2010 13:03:02 29.1 C 9.24 g/m*3 29.1 C 0 km/h
1506 06-06-2010 13:15:01 29.4 C 9.39 g/m*3 29.4 C 0 km/h
1507 06-06-2010 13:27:01 31.6 C 7.27 g/m*3 31.6 C 0 km/h
1508 06-06-2010 13:39:02 30.9 C 6.68 g/m*3 30.9 C 0 km/h
1509 06-06-2010 13:51:02 29.5 C 8.26 g/m*3 29.5 C 0 km/h
1510 06-06-2010 14:03:02 28.9 C 9.71 g/m*3 28.9 C 0 km/h
1511 06-06-2010 14:15:01 30 C 8.19 g/m*3 30 C 0 km/h
1512 06-06-2010 14:27:01 30.3 C 7.7 g/m*3 30.3 C 0 km/h
1513 06-06-2010 14:39:02 30.6 C 7.83 g/m*3 30.6 C 0 km/h
1514 06-06-2010 14:51:02 31 C 8 g/m*3 31 C 0 km/h
1515 06-06-2010 15:03:02 30.7 C 7.56 g/m*3 30.7 C 0 km/h
1516 06-06-2010 15:15:02 31.3 C 7.48 g/m*3 31.3 C 0 km/h
1517 06-06-2010 15:27:02 31.9 C 7.39 g/m*3 31.9 C 0 km/h
1518 06-06-2010 15:39:02 31.3 C 7.15 g/m*3 31.3 C 0 km/h
1519 06-06-2010 15:51:01 30.4 C 8.99 g/m*3 30.4 C 0 km/h
1520 06-06-2010 16:03:02 29.3 C 9.34 g/m*3 29.3 C 0 km/h
1521 06-06-2010 16:15:13 25.6 C 8.09 g/m*3 25.6 C 0 km/h
1522 06-06-2010 16:27:13 24 C 9.14 g/m*3 24 C 0 km/h
1523 06-06-2010 16:39:13 20.6 C 11.63 g/m*3 20.6 C 0 km/h
1524 06-06-2010 16:51:13 19.3 C 12.44 g/m*3 19.3 C 0 km/h
1525 06-06-2010 17:03:13 18.9 C 13.28 g/m*3 18.9 C 0 km/h
Sensor: Nr:Datum:Temp:Abs-Feuchte:Windchill:Wind:
Aussen-T/F 1526 06-06-2010 17:15:13 18.5 C 13.13 g/m*3 18.5 C 0 km/h
1527 06-06-2010 17:27:02 18.7 C 13.77 g/m*3 18.7 C 0 km/h
1528 06-06-2010 17:39:01 18.8 C 14.01 g/m*3 18.8 C 0 km/h
1529 06-06-2010 17:51:03 18.6 C 13.85 g/m*3 18.6 C 0 km/h
1530 06-06-2010 18:03:02 18.9 C 14.26 g/m*3 18.9 C 0 km/h
1531 06-06-2010 18:15:02 19.5 C 14.6 g/m*3 19.5 C 0 km/h
1532 06-06-2010 18:27:02 19.3 C 14.26 g/m*3 19.3 C 0 km/h
1533 06-06-2010 18:39:02 19.1 C 13.93 g/m*3 19.1 C 0 km/h
1534 06-06-2010 18:51:02 19.2 C 14.02 g/m*3 19.2 C 0 km/h
1535 06-06-2010 19:03:02 19.4 C 14.35 g/m*3 19.4 C 0 km/h
1536 06-06-2010 19:15:02 19.4 C 14.35 g/m*3 19.4 C 0 km/h
1537 06-06-2010 19:27:02 19.3 C 14.26 g/m*3 19.3 C 0 km/h
1538 06-06-2010 19:39:01 19.1 C 14.1 g/m*3 19.1 C 0 km/h
1539 06-06-2010 19:51:02 18.9 C 14.09 g/m*3 18.9 C 0 km/h
1540 06-06-2010 20:03:01 19.2 C 14.35 g/m*3 19.2 C 0 km/h
1541 06-06-2010 20:15:01 19.2 C 14.35 g/m*3 19.2 C 0 km/h
1542 06-06-2010 20:27:01 19 C 14.01 g/m*3 19 C 0 km/h
1543 06-06-2010 20:39:02 18.8 C 14.01 g/m*3 18.8 C 0 km/h
1544 06-06-2010 20:51:02 18.8 C 14.01 g/m*3 18.8 C 0 km/h
1545 06-06-2010 21:03:02 18.7 C 13.93 g/m*3 18.7 C 0 km/h
1546 06-06-2010 21:15:02 18.7 C 13.93 g/m*3 18.7 C 0 km/h
1547 06-06-2010 21:27:02 18.6 C 13.85 g/m*3 18.6 C 0 km/h
1548 06-06-2010 21:39:02 18.5 C 13.77 g/m*3 18.5 C 0 km/h
1549 06-06-2010 21:51:02 18.5 C 13.77 g/m*3 18.5 C 0 km/h
1550 06-06-2010 22:03:02 18.4 C 13.68 g/m*3 18.4 C 0 km/h
Sensor: Nr:Datum:Temp:Abs-Feuchte:Windchill:Wind:
Aussen-T/F 1551 06-06-2010 22:16:02 18.4 C 13.68 g/m*3 18.4 C 0 km/h
1552 06-06-2010 22:28:02 18.3 C 13.6 g/m*3 18.3 C 0 km/h
1553 06-06-2010 22:40:02 18.3 C 13.6 g/m*3 18.3 C 0 km/h
1554 06-06-2010 22:52:02 18.3 C 13.76 g/m*3 18.3 C 0 km/h
1555 06-06-2010 23:04:02 18.4 C 13.68 g/m*3 18.4 C 0 km/h
1556 06-06-2010 23:16:02 18.5 C 13.77 g/m*3 18.5 C 0 km/h
1557 06-06-2010 23:28:02 18.4 C 13.53 g/m*3 18.4 C 0 km/h
1558 06-06-2010 23:40:02 18.1 C 13.29 g/m*3 18.1 C 0 km/h
1559 06-06-2010 23:52:02 18.1 C 13.29 g/m*3 18.1 C 0 km/h
1560 07-06-2010 00:04:02 17.7 C 13.28 g/m*3 17.7 C 0 km/h
1561 07-06-2010 00:16:02 17.9 C 13.44 g/m*3 17.9 C 0 km/h
1562 07-06-2010 00:28:02 18 C 13.52 g/m*3 18 C 0 km/h
1563 07-06-2010 00:40:02 18 C 13.52 g/m*3 18 C 0 km/h
1564 07-06-2010 00:52:02 18 C 13.52 g/m*3 18 C 0 km/h
1565 07-06-2010 01:04:02 17.9 C 13.74 g/m*3 17.9 C 0 km/h
1566 07-06-2010 01:16:02 17.9 C 13.74 g/m*3 17.9 C 0 km/h
1567 07-06-2010 01:28:02 17.8 C 13.81 g/m*3 17.8 C 0 km/h
1568 07-06-2010 01:40:02 17.7 C 13.73 g/m*3 17.7 C 0 km/h
1569 07-06-2010 01:52:02 17.8 C 13.81 g/m*3 17.8 C 0 km/h
1570 07-06-2010 02:04:03 17.9 C 13.89 g/m*3 17.9 C 0 km/h
1571 07-06-2010 02:16:03 17.9 C 13.89 g/m*3 17.9 C 0 km/h
1572 07-06-2010 02:28:03 17.6 C 13.05 g/m*3 17.6 C 0 km/h
1573 07-06-2010 02:40:03 17 C 10.85 g/m*3 17 C 0 km/h
1574 07-06-2010 02:52:03 16.4 C 10.89 g/m*3 16.4 C 0 km/h
1575 07-06-2010 03:04:03 16.2 C 10.62 g/m*3 16.2 C 0 km/h
Sensor: Nr:Datum:Temp:Abs-Feuchte:Windchill:Wind:
Aussen-T/F 1576 07-06-2010 03:16:03 15.8 C 10.23 g/m*3 15.8 C 0 km/h
1577 07-06-2010 03:28:03 15.3 C 10.06 g/m*3 15.3 C 0 km/h
1578 07-06-2010 03:40:03 15 C 10 g/m*3 15 C 0 km/h
1579 07-06-2010 03:52:03 15 C 9.49 g/m*3 15 C 0 km/h
1580 07-06-2010 04:04:03 14.8 C 9.12 g/m*3 14.8 C 0 km/h
1581 07-06-2010 04:16:03 14.4 C 9.02 g/m*3 14.4 C 0 km/h
1582 07-06-2010 04:28:03 13.9 C 9.11 g/m*3 13.9 C 0 km/h
1583 07-06-2010 04:40:03 13.5 C 9.01 g/m*3 13.5 C 0 km/h
1584 07-06-2010 04:52:03 13.4 C 9.18 g/m*3 13.4 C 0 km/h
1585 07-06-2010 05:04:03 13.6 C 9.18 g/m*3 13.6 C 0 km/h
1586 07-06-2010 05:16:03 13.6 C 9.06 g/m*3 13.6 C 0 km/h
1587 07-06-2010 05:28:03 13.6 C 9.06 g/m*3 13.6 C 0 km/h
1588 07-06-2010 05:40:03 13.7 C 9.24 g/m*3 13.7 C 0 km/h
1589 07-06-2010 05:52:03 13.5 C 9.24 g/m*3 13.5 C 0 km/h
1590 07-06-2010 06:04:04 13.7 C 9.47 g/m*3 13.7 C 0 km/h
1591 07-06-2010 06:16:04 14.1 C 9.59 g/m*3 14.1 C 0 km/h
1592 07-06-2010 06:28:04 14.5 C 9.33 g/m*3 14.5 C 0 km/h
1593 07-06-2010 06:40:04 14.8 C 9.12 g/m*3 14.8 C 0 km/h
1594 07-06-2010 06:52:04 14.9 C 9.3 g/m*3 14.9 C 0 km/h
1595 07-06-2010 07:04:02 15.1 C 9.03 g/m*3 15.1 C 0 km/h
1596 07-06-2010 07:16:02 15.3 C 9.14 g/m*3 15.3 C 0 km/h
1597 07-06-2010 07:28:02 15 C 8.98 g/m*3 15 C 0 km/h
1598 07-06-2010 07:40:18 14.9 C 9.3 g/m*3 14.9 C 0 km/h
1599 07-06-2010 07:52:01 14.9 C 9.43 g/m*3 14.9 C 0 km/h
1600 07-06-2010 08:04:02 15.2 C 9.35 g/m*3 15.2 C 0 km/h
Sensor: Nr:Datum:Temp:Abs-Feuchte:Windchill:Wind:
Aussen-T/F 1601 07-06-2010 08:16:02 15.4 C 9.33 g/m*3 15.4 C 0 km/h
1602 07-06-2010 08:28:02 15.6 C 9.31 g/m*3 15.6 C 0 km/h
1603 07-06-2010 08:40:01 15.7 C 9.37 g/m*3 15.7 C 0 km/h
1604 07-06-2010 08:52:03 15.8 C 9.29 g/m*3 15.8 C 0 km/h
1605 07-06-2010 09:04:02 16.5 C 9.55 g/m*3 16.5 C 0 km/h
1606 07-06-2010 09:16:02 17.2 C 9.23 g/m*3 17.2 C 0 km/h
1607 07-06-2010 09:28:03 17.2 C 9.23 g/m*3 17.2 C 0 km/h
1608 07-06-2010 09:40:02 17 C 8.97 g/m*3 17 C 0 km/h
1609 07-06-2010 09:52:02 17.5 C 9.09 g/m*3 17.5 C 0 km/h
1610 07-06-2010 10:04:01 17.6 C 9.15 g/m*3 17.6 C 0 km/h
1611 07-06-2010 10:16:02 18.1 C 8.96 g/m*3 18.1 C 0 km/h
1612 07-06-2010 10:28:02 18.3 C 8.76 g/m*3 18.3 C 0 km/h
1613 07-06-2010 10:40:02 18.7 C 8.81 g/m*3 18.7 C 0 km/h
1614 07-06-2010 10:52:01 18.9 C 9.07 g/m*3 18.9 C 0 km/h
1615 07-06-2010 11:04:02 19.5 C 8.89 g/m*3 19.5 C 0 km/h
1616 07-06-2010 11:16:01 19.3 C 8.79 g/m*3 19.3 C 0 km/h
1617 07-06-2010 11:28:01 19.1 C 8.69 g/m*3 19.1 C 0 km/h
1618 07-06-2010 11:40:01 19.5 C 8.73 g/m*3 19.5 C 0 km/h
1619 07-06-2010 11:52:02 19.9 C 8.42 g/m*3 19.9 C 0 km/h
1620 07-06-2010 12:04:02 20.7 C 8.1 g/m*3 20.7 C 0 km/h
1621 07-06-2010 12:16:01 21.6 C 7.97 g/m*3 21.6 C 0 km/h
1622 07-06-2010 12:28:01 21.9 C 7.91 g/m*3 21.9 C 0 km/h
1623 07-06-2010 12:40:02 22.4 C 7.94 g/m*3 22.4 C 0 km/h
1624 07-06-2010 12:52:02 23.1 C 7.65 g/m*3 23.1 C 0 km/h
1625 07-06-2010 13:04:02 23.1 C 7.23 g/m*3 23.1 C 0 km/h
Sensor: Nr:Datum:Temp:Abs-Feuchte:Windchill:Wind:
Aussen-T/F 1626 07-06-2010 13:16:01 24.3 C 7.3 g/m*3 24.3 C 0 km/h
1627 07-06-2010 13:28:01 24.3 C 7.75 g/m*3 24.3 C 0 km/h
1628 07-06-2010 13:40:02 23.4 C 6.73 g/m*3 23.4 C 0 km/h
1629 07-06-2010 13:52:01 23.8 C 7.31 g/m*3 23.8 C 0 km/h
1630 07-06-2010 14:04:02 23.9 C 6.92 g/m*3 23.9 C 0 km/h
1631 07-06-2010 14:16:02 23.7 C 7.27 g/m*3 23.7 C 0 km/h
1632 07-06-2010 14:28:02 24.1 C 6.78 g/m*3 24.1 C 0 km/h
1633 07-06-2010 14:40:02 24.1 C 7 g/m*3 24.1 C 0 km/h
1634 07-06-2010 14:52:02 24.2 C 6.82 g/m*3 24.2 C 0 km/h
1635 07-06-2010 15:04:01 24.4 C 6.68 g/m*3 24.4 C 0 km/h
1636 07-06-2010 15:16:02 24 C 6.74 g/m*3 24 C 0 km/h
1637 07-06-2010 15:28:02 24.7 C 6.79 g/m*3 24.7 C 0 km/h
1638 07-06-2010 15:40:01 24.7 C 6.34 g/m*3 24.7 C 0 km/h
1639 07-06-2010 15:52:02 23.7 C 6.63 g/m*3 23.7 C 0 km/h
1640 07-06-2010 16:04:01 24.8 C 6.6 g/m*3 24.8 C 0 km/h
1641 07-06-2010 16:16:01 25.3 C 6.55 g/m*3 25.3 C 0 km/h
1642 07-06-2010 16:28:01 25.6 C 6.43 g/m*3 25.6 C 0 km/h
1643 07-06-2010 16:40:02 25.1 C 6.02 g/m*3 25.1 C 0 km/h
1644 07-06-2010 16:52:02 25.3 C 6.32 g/m*3 25.3 C 0 km/h
1645 07-06-2010 17:04:01 24.5 C 6.04 g/m*3 24.5 C 0 km/h
1646 07-06-2010 17:16:02 24.8 C 6.15 g/m*3 24.8 C 0 km/h
1647 07-06-2010 17:28:02 24.3 C 5.97 g/m*3 24.3 C 0 km/h
1648 07-06-2010 17:40:02 24.9 C 5.95 g/m*3 24.9 C 0 km/h
1649 07-06-2010 17:52:02 24.8 C 5.69 g/m*3 24.8 C 0 km/h
1650 07-06-2010 18:04:03 24.5 C 5.6 g/m*3 24.5 C 0 km/h
Sensor: Nr:Datum:Temp:Abs-Feuchte:Windchill:Wind:
Aussen-T/F 1651 07-06-2010 18:16:02 26.2 C 5.42 g/m*3 26.2 C 0 km/h
1652 07-06-2010 18:28:02 25.6 C 5 g/m*3 25.6 C 0 km/h
1653 07-06-2010 18:40:02 26.9 C 5.37 g/m*3 26.9 C 0 km/h
1654 07-06-2010 18:52:01 26.4 C 4.98 g/m*3 26.4 C 0 km/h
1655 07-06-2010 19:04:02 26.6 C 5.29 g/m*3 26.6 C 0 km/h
1656 07-06-2010 19:16:01 26 C 5.11 g/m*3 26 C 0 km/h
1657 07-06-2010 19:28:01 25.5 C 5.21 g/m*3 25.5 C 0 km/h
1658 07-06-2010 19:40:01 25.2 C 5.35 g/m*3 25.2 C 0 km/h
1659 07-06-2010 19:52:01 23.9 C 5.41 g/m*3 23.9 C 0 km/h
1660 07-06-2010 20:04:01 24.1 C 5.47 g/m*3 24.1 C 0 km/h
1661 07-06-2010 20:16:02 24.1 C 5.69 g/m*3 24.1 C 0 km/h
1662 07-06-2010 20:28:02 23.1 C 5.79 g/m*3 23.1 C 0 km/h
1663 07-06-2010 20:40:01 22.3 C 6.12 g/m*3 22.3 C 0 km/h
1664 07-06-2010 20:52:01 21.8 C 6.72 g/m*3 21.8 C 0 km/h
1665 07-06-2010 21:04:01 21 C 6.41 g/m*3 21 C 0 km/h
1666 07-06-2010 21:16:02 20.4 C 6.72 g/m*3 20.4 C 0 km/h
1667 07-06-2010 21:28:02 19.9 C 6.87 g/m*3 19.9 C 0 km/h
1668 07-06-2010 21:40:01 19.4 C 6.84 g/m*3 19.4 C 0 km/h
1669 07-06-2010 21:52:03 19.5 C 7.05 g/m*3 19.5 C 0 km/h
1670 07-06-2010 22:04:03 18.9 C 6.97 g/m*3 18.9 C 0 km/h
1671 07-06-2010 22:16:02 18.8 C 7.25 g/m*3 18.8 C 0 km/h
1672 07-06-2010 22:28:02 18.5 C 7.28 g/m*3 18.5 C 0 km/h
1673 07-06-2010 22:40:03 18.3 C 7.35 g/m*3 18.3 C 0 km/h
1674 07-06-2010 22:53:02 17.9 C 7.79 g/m*3 17.9 C 0 km/h
1675 07-06-2010 23:05:02 17.9 C 7.94 g/m*3 17.9 C 0 km/h
Sensor: Nr:Datum:Temp:Abs-Feuchte:Windchill:Wind:
Aussen-T/F 1676 07-06-2010 23:17:03 17.4 C 7.85 g/m*3 17.4 C 0 km/h
1677 07-06-2010 23:29:03 17 C 7.81 g/m*3 17 C 0 km/h
1678 07-06-2010 23:41:03 17 C 8.39 g/m*3 17 C 0 km/h
1679 07-06-2010 23:53:03 17 C 8.39 g/m*3 17 C 0 km/h

Legende:
   Min
   Max


Maximal/Minimal-Werte vom 25.05.2010 - 07.06.2010

Sensor Min Max Avg
Temp
(Aussen-T/F)
8.4 °C
31-05-2010  04:10:04
33.3 °C
05-06-2010  17:02:01
17.9 °C
Abs-Feuchte
(Aussen-T/F)
3.93 g/m*3
28-05-2010  17:07:01
14.6 g/m*3
06-06-2010  18:15:02
7.9 g/m*3
Windchill
(Aussen-T/F)
8.4 C
31-05-2010  04:10:04
33.3 C
05-06-2010  17:02:01
17.89 C

Die Daten stammen von einer Davis Vantage Pro 2 Wetter-Station und werden unter Linux mit der Software wview2wettercgi und aufbereitet. Alle Angaben erfolgen ohne Gewähr für ihre Vollständigkeit oder Richtigkeit.
Kontakt: Rainer Krienke krienke@uni-koblenz.de . Meine Webseiten an der Uni Koblenz oder privat.
Version: $Revision: 0.78 $